<?xml version="1.0" encoding="UTF-8" standalone="no" ?>
<gpx xmlns="http://www.topografix.com/GPX/1/1" xmlns:xsi="http://www.w3.org/2001/XMLSchema-instance" xsi:schemaLocation="http://www.topografix.com/GPX/1/1 http://www.topografix.com/GPX/1/1/gpx.xsd" version="1.1" creator="VisuGPX - https://www.visugpx.com">
  <metadata>
    <name>Course à pied en soirée</name>
  </metadata>
  <trk>
    <name><![CDATA[Course à pied en soirée_1]]></name>
    <trkseg>
      <trkpt lat="46.07777" lon="6.71766">
        <ele>695.8</ele>
        <time>2023-08-16T16:02:44Z</time>
      </trkpt>
      <trkpt lat="46.07768" lon="6.71792">
        <ele>696</ele>
        <time>2023-08-16T16:02:52Z</time>
      </trkpt>
      <trkpt lat="46.07757" lon="6.71816">
        <ele>696.2</ele>
        <time>2023-08-16T16:02:59Z</time>
      </trkpt>
      <trkpt lat="46.07748" lon="6.71841">
        <ele>696.5</ele>
        <time>2023-08-16T16:03:06Z</time>
      </trkpt>
      <trkpt lat="46.07737" lon="6.71865">
        <ele>696.9</ele>
        <time>2023-08-16T16:03:14Z</time>
      </trkpt>
      <trkpt lat="46.07728" lon="6.71889">
        <ele>697.4</ele>
        <time>2023-08-16T16:03:22Z</time>
      </trkpt>
      <trkpt lat="46.07719" lon="6.71914">
        <ele>699.3</ele>
        <time>2023-08-16T16:03:31Z</time>
      </trkpt>
      <trkpt lat="46.07719" lon="6.71937">
        <ele>699.7</ele>
        <time>2023-08-16T16:03:39Z</time>
      </trkpt>
      <trkpt lat="46.07734" lon="6.71952">
        <ele>699.7</ele>
        <time>2023-08-16T16:03:46Z</time>
      </trkpt>
      <trkpt lat="46.0775" lon="6.71965">
        <ele>699.6</ele>
        <time>2023-08-16T16:03:53Z</time>
      </trkpt>
      <trkpt lat="46.07767" lon="6.71981">
        <ele>699.5</ele>
        <time>2023-08-16T16:04:02Z</time>
      </trkpt>
      <trkpt lat="46.07785" lon="6.71995">
        <ele>699.4</ele>
        <time>2023-08-16T16:04:09Z</time>
      </trkpt>
      <trkpt lat="46.07802" lon="6.72008">
        <ele>699.4</ele>
        <time>2023-08-16T16:04:15Z</time>
      </trkpt>
      <trkpt lat="46.07819" lon="6.72023">
        <ele>699.4</ele>
        <time>2023-08-16T16:04:22Z</time>
      </trkpt>
      <trkpt lat="46.07835" lon="6.7204">
        <ele>699.4</ele>
        <time>2023-08-16T16:04:29Z</time>
      </trkpt>
      <trkpt lat="46.07851" lon="6.72055">
        <ele>699.5</ele>
        <time>2023-08-16T16:04:36Z</time>
      </trkpt>
      <trkpt lat="46.07868" lon="6.72071">
        <ele>699.5</ele>
        <time>2023-08-16T16:04:43Z</time>
      </trkpt>
      <trkpt lat="46.07885" lon="6.72086">
        <ele>699.5</ele>
        <time>2023-08-16T16:04:50Z</time>
      </trkpt>
      <trkpt lat="46.07901" lon="6.72099">
        <ele>699.5</ele>
        <time>2023-08-16T16:04:57Z</time>
      </trkpt>
      <trkpt lat="46.07919" lon="6.72112">
        <ele>699.5</ele>
        <time>2023-08-16T16:05:04Z</time>
      </trkpt>
      <trkpt lat="46.07935" lon="6.72127">
        <ele>699.6</ele>
        <time>2023-08-16T16:05:11Z</time>
      </trkpt>
      <trkpt lat="46.07951" lon="6.72142">
        <ele>699.6</ele>
        <time>2023-08-16T16:05:18Z</time>
      </trkpt>
      <trkpt lat="46.07967" lon="6.72158">
        <ele>699.6</ele>
        <time>2023-08-16T16:05:25Z</time>
      </trkpt>
      <trkpt lat="46.07984" lon="6.72173">
        <ele>699.5</ele>
        <time>2023-08-16T16:05:32Z</time>
      </trkpt>
      <trkpt lat="46.08001" lon="6.72187">
        <ele>699.6</ele>
        <time>2023-08-16T16:05:38Z</time>
      </trkpt>
      <trkpt lat="46.08018" lon="6.72202">
        <ele>699.6</ele>
        <time>2023-08-16T16:05:45Z</time>
      </trkpt>
      <trkpt lat="46.08034" lon="6.72216">
        <ele>699.7</ele>
        <time>2023-08-16T16:05:52Z</time>
      </trkpt>
      <trkpt lat="46.0805" lon="6.72233">
        <ele>699.9</ele>
        <time>2023-08-16T16:05:59Z</time>
      </trkpt>
      <trkpt lat="46.08067" lon="6.72248">
        <ele>700</ele>
        <time>2023-08-16T16:06:06Z</time>
      </trkpt>
      <trkpt lat="46.08084" lon="6.72262">
        <ele>700.3</ele>
        <time>2023-08-16T16:06:13Z</time>
      </trkpt>
      <trkpt lat="46.081" lon="6.72275">
        <ele>700.4</ele>
        <time>2023-08-16T16:06:19Z</time>
      </trkpt>
      <trkpt lat="46.08118" lon="6.72292">
        <ele>700.5</ele>
        <time>2023-08-16T16:06:26Z</time>
      </trkpt>
      <trkpt lat="46.08133" lon="6.72306">
        <ele>700.7</ele>
        <time>2023-08-16T16:06:32Z</time>
      </trkpt>
      <trkpt lat="46.0815" lon="6.72322">
        <ele>700.9</ele>
        <time>2023-08-16T16:06:39Z</time>
      </trkpt>
      <trkpt lat="46.08162" lon="6.72343">
        <ele>701.2</ele>
        <time>2023-08-16T16:06:45Z</time>
      </trkpt>
      <trkpt lat="46.08178" lon="6.72362">
        <ele>701.4</ele>
        <time>2023-08-16T16:06:52Z</time>
      </trkpt>
      <trkpt lat="46.08193" lon="6.72376">
        <ele>701.6</ele>
        <time>2023-08-16T16:06:59Z</time>
      </trkpt>
      <trkpt lat="46.08207" lon="6.72397">
        <ele>701.9</ele>
        <time>2023-08-16T16:07:06Z</time>
      </trkpt>
      <trkpt lat="46.08215" lon="6.72412">
        <ele>702.1</ele>
        <time>2023-08-16T16:07:11Z</time>
      </trkpt>
      <trkpt lat="46.08224" lon="6.72418">
        <ele>702.3</ele>
        <time>2023-08-16T16:07:15Z</time>
      </trkpt>
      <trkpt lat="46.08243" lon="6.72416">
        <ele>702.6</ele>
        <time>2023-08-16T16:07:21Z</time>
      </trkpt>
      <trkpt lat="46.0826" lon="6.7243">
        <ele>703</ele>
        <time>2023-08-16T16:07:27Z</time>
      </trkpt>
      <trkpt lat="46.08277" lon="6.72443">
        <ele>703.4</ele>
        <time>2023-08-16T16:07:33Z</time>
      </trkpt>
      <trkpt lat="46.08295" lon="6.72454">
        <ele>703.7</ele>
        <time>2023-08-16T16:07:39Z</time>
      </trkpt>
      <trkpt lat="46.08313" lon="6.72468">
        <ele>703.9</ele>
        <time>2023-08-16T16:07:46Z</time>
      </trkpt>
      <trkpt lat="46.0833" lon="6.72478">
        <ele>704.4</ele>
        <time>2023-08-16T16:07:52Z</time>
      </trkpt>
      <trkpt lat="46.08347" lon="6.72493">
        <ele>704.9</ele>
        <time>2023-08-16T16:07:59Z</time>
      </trkpt>
      <trkpt lat="46.08362" lon="6.7251">
        <ele>705.5</ele>
        <time>2023-08-16T16:08:07Z</time>
      </trkpt>
      <trkpt lat="46.08373" lon="6.72534">
        <ele>706.2</ele>
        <time>2023-08-16T16:08:13Z</time>
      </trkpt>
      <trkpt lat="46.08376" lon="6.72562">
        <ele>706.8</ele>
        <time>2023-08-16T16:08:19Z</time>
      </trkpt>
      <trkpt lat="46.08377" lon="6.72589">
        <ele>707.2</ele>
        <time>2023-08-16T16:08:25Z</time>
      </trkpt>
      <trkpt lat="46.08376" lon="6.72618">
        <ele>707.7</ele>
        <time>2023-08-16T16:08:32Z</time>
      </trkpt>
      <trkpt lat="46.08368" lon="6.72642">
        <ele>708</ele>
        <time>2023-08-16T16:08:38Z</time>
      </trkpt>
      <trkpt lat="46.08358" lon="6.72666">
        <ele>708.3</ele>
        <time>2023-08-16T16:08:45Z</time>
      </trkpt>
      <trkpt lat="46.08351" lon="6.72693">
        <ele>708.4</ele>
        <time>2023-08-16T16:08:52Z</time>
      </trkpt>
      <trkpt lat="46.08349" lon="6.72721">
        <ele>708.5</ele>
        <time>2023-08-16T16:08:59Z</time>
      </trkpt>
      <trkpt lat="46.0835" lon="6.72747">
        <ele>708.6</ele>
        <time>2023-08-16T16:09:05Z</time>
      </trkpt>
      <trkpt lat="46.08354" lon="6.72772">
        <ele>708.7</ele>
        <time>2023-08-16T16:09:11Z</time>
      </trkpt>
      <trkpt lat="46.08359" lon="6.72797">
        <ele>708.9</ele>
        <time>2023-08-16T16:09:17Z</time>
      </trkpt>
      <trkpt lat="46.08367" lon="6.72825">
        <ele>709.4</ele>
        <time>2023-08-16T16:09:24Z</time>
      </trkpt>
      <trkpt lat="46.08365" lon="6.72851">
        <ele>709.6</ele>
        <time>2023-08-16T16:09:31Z</time>
      </trkpt>
      <trkpt lat="46.0836" lon="6.72877">
        <ele>709.9</ele>
        <time>2023-08-16T16:09:39Z</time>
      </trkpt>
      <trkpt lat="46.08354" lon="6.72903">
        <ele>710.4</ele>
        <time>2023-08-16T16:09:46Z</time>
      </trkpt>
      <trkpt lat="46.08355" lon="6.72931">
        <ele>710.9</ele>
        <time>2023-08-16T16:09:53Z</time>
      </trkpt>
      <trkpt lat="46.08352" lon="6.72959">
        <ele>711.3</ele>
        <time>2023-08-16T16:10:00Z</time>
      </trkpt>
      <trkpt lat="46.08343" lon="6.72986">
        <ele>712</ele>
        <time>2023-08-16T16:10:07Z</time>
      </trkpt>
      <trkpt lat="46.08336" lon="6.73011">
        <ele>712.7</ele>
        <time>2023-08-16T16:10:14Z</time>
      </trkpt>
      <trkpt lat="46.08329" lon="6.73036">
        <ele>713.7</ele>
        <time>2023-08-16T16:10:21Z</time>
      </trkpt>
      <trkpt lat="46.08326" lon="6.73062">
        <ele>715.1</ele>
        <time>2023-08-16T16:10:29Z</time>
      </trkpt>
      <trkpt lat="46.08328" lon="6.73091">
        <ele>716.7</ele>
        <time>2023-08-16T16:10:38Z</time>
      </trkpt>
      <trkpt lat="46.08335" lon="6.73118">
        <ele>717.9</ele>
        <time>2023-08-16T16:10:45Z</time>
      </trkpt>
      <trkpt lat="46.08335" lon="6.73144">
        <ele>718.3</ele>
        <time>2023-08-16T16:10:52Z</time>
      </trkpt>
      <trkpt lat="46.08336" lon="6.73173">
        <ele>719.1</ele>
        <time>2023-08-16T16:11:00Z</time>
      </trkpt>
      <trkpt lat="46.08338" lon="6.73199">
        <ele>720.2</ele>
        <time>2023-08-16T16:11:07Z</time>
      </trkpt>
      <trkpt lat="46.08337" lon="6.73227">
        <ele>721.4</ele>
        <time>2023-08-16T16:11:15Z</time>
      </trkpt>
      <trkpt lat="46.08342" lon="6.73253">
        <ele>722.5</ele>
        <time>2023-08-16T16:11:22Z</time>
      </trkpt>
      <trkpt lat="46.08348" lon="6.73279">
        <ele>723.5</ele>
        <time>2023-08-16T16:11:29Z</time>
      </trkpt>
      <trkpt lat="46.08355" lon="6.73304">
        <ele>724.5</ele>
        <time>2023-08-16T16:11:36Z</time>
      </trkpt>
      <trkpt lat="46.08363" lon="6.7333">
        <ele>725.4</ele>
        <time>2023-08-16T16:11:44Z</time>
      </trkpt>
      <trkpt lat="46.08373" lon="6.73353">
        <ele>726.1</ele>
        <time>2023-08-16T16:11:52Z</time>
      </trkpt>
      <trkpt lat="46.08379" lon="6.73378">
        <ele>726.7</ele>
        <time>2023-08-16T16:11:59Z</time>
      </trkpt>
      <trkpt lat="46.08393" lon="6.73394">
        <ele>727.6</ele>
        <time>2023-08-16T16:12:05Z</time>
      </trkpt>
      <trkpt lat="46.08413" lon="6.73397">
        <ele>731.4</ele>
        <time>2023-08-16T16:12:13Z</time>
      </trkpt>
      <trkpt lat="46.08431" lon="6.73395">
        <ele>734.4</ele>
        <time>2023-08-16T16:12:23Z</time>
      </trkpt>
      <trkpt lat="46.08448" lon="6.73385">
        <ele>737.3</ele>
        <time>2023-08-16T16:12:33Z</time>
      </trkpt>
      <trkpt lat="46.08453" lon="6.73384">
        <ele>737.5</ele>
        <time>2023-08-16T16:12:36Z</time>
      </trkpt>
      <trkpt lat="46.08464" lon="6.73405">
        <ele>740.8</ele>
        <time>2023-08-16T16:12:47Z</time>
      </trkpt>
      <trkpt lat="46.08482" lon="6.73412">
        <ele>744</ele>
        <time>2023-08-16T16:12:57Z</time>
      </trkpt>
      <trkpt lat="46.08502" lon="6.73408">
        <ele>747.6</ele>
        <time>2023-08-16T16:13:09Z</time>
      </trkpt>
      <trkpt lat="46.0852" lon="6.73405">
        <ele>749</ele>
        <time>2023-08-16T16:13:20Z</time>
      </trkpt>
      <trkpt lat="46.08537" lon="6.73412">
        <ele>751</ele>
        <time>2023-08-16T16:13:30Z</time>
      </trkpt>
      <trkpt lat="46.08551" lon="6.73395">
        <ele>752.9</ele>
        <time>2023-08-16T16:13:39Z</time>
      </trkpt>
      <trkpt lat="46.08556" lon="6.73372">
        <ele>754.3</ele>
        <time>2023-08-16T16:13:47Z</time>
      </trkpt>
      <trkpt lat="46.08575" lon="6.73371">
        <ele>760.5</ele>
        <time>2023-08-16T16:13:58Z</time>
      </trkpt>
      <trkpt lat="46.08575" lon="6.73371">
        <ele>762.8</ele>
        <time>2023-08-16T16:14:00Z</time>
      </trkpt>
      <trkpt lat="46.08576" lon="6.73368">
        <ele>765.1</ele>
        <time>2023-08-16T16:14:07Z</time>
      </trkpt>
      <trkpt lat="46.08593" lon="6.73356">
        <ele>773.4</ele>
        <time>2023-08-16T16:15:29Z</time>
      </trkpt>
      <trkpt lat="46.08606" lon="6.73363">
        <ele>777.2</ele>
        <time>2023-08-16T16:15:45Z</time>
      </trkpt>
      <trkpt lat="46.08622" lon="6.73357">
        <ele>781.7</ele>
        <time>2023-08-16T16:16:10Z</time>
      </trkpt>
      <trkpt lat="46.08641" lon="6.73359">
        <ele>786.9</ele>
        <time>2023-08-16T16:16:21Z</time>
      </trkpt>
      <trkpt lat="46.08659" lon="6.73363">
        <ele>791.7</ele>
        <time>2023-08-16T16:16:31Z</time>
      </trkpt>
      <trkpt lat="46.08676" lon="6.73372">
        <ele>796.3</ele>
        <time>2023-08-16T16:16:41Z</time>
      </trkpt>
      <trkpt lat="46.08695" lon="6.73374">
        <ele>800.8</ele>
        <time>2023-08-16T16:16:51Z</time>
      </trkpt>
      <trkpt lat="46.08696" lon="6.73373">
        <ele>800.6</ele>
        <time>2023-08-16T16:16:52Z</time>
      </trkpt>
      <trkpt lat="46.08694" lon="6.73349">
        <ele>799.9</ele>
        <time>2023-08-16T16:17:02Z</time>
      </trkpt>
      <trkpt lat="46.08678" lon="6.73334">
        <ele>799</ele>
        <time>2023-08-16T16:17:10Z</time>
      </trkpt>
      <trkpt lat="46.08665" lon="6.73313">
        <ele>798.3</ele>
        <time>2023-08-16T16:17:18Z</time>
      </trkpt>
      <trkpt lat="46.08651" lon="6.73293">
        <ele>797.8</ele>
        <time>2023-08-16T16:17:27Z</time>
      </trkpt>
      <trkpt lat="46.08641" lon="6.73269">
        <ele>797.6</ele>
        <time>2023-08-16T16:17:35Z</time>
      </trkpt>
      <trkpt lat="46.08641" lon="6.73263">
        <ele>798</ele>
        <time>2023-08-16T16:17:37Z</time>
      </trkpt>
      <trkpt lat="46.08653" lon="6.73241">
        <ele>801.2</ele>
        <time>2023-08-16T16:17:47Z</time>
      </trkpt>
      <trkpt lat="46.0867" lon="6.73228">
        <ele>807</ele>
        <time>2023-08-16T16:18:02Z</time>
      </trkpt>
      <trkpt lat="46.08687" lon="6.73218">
        <ele>813.1</ele>
        <time>2023-08-16T16:18:19Z</time>
      </trkpt>
      <trkpt lat="46.08692" lon="6.73215">
        <ele>814.8</ele>
        <time>2023-08-16T16:18:24Z</time>
      </trkpt>
      <trkpt lat="46.08709" lon="6.73204">
        <ele>821.6</ele>
        <time>2023-08-16T16:18:42Z</time>
      </trkpt>
      <trkpt lat="46.08719" lon="6.73198">
        <ele>825.2</ele>
        <time>2023-08-16T16:18:54Z</time>
      </trkpt>
      <trkpt lat="46.0872" lon="6.73193">
        <ele>825.9</ele>
        <time>2023-08-16T16:18:58Z</time>
      </trkpt>
      <trkpt lat="46.08719" lon="6.7319">
        <ele>826.1</ele>
        <time>2023-08-16T16:19:00Z</time>
      </trkpt>
      <trkpt lat="46.08714" lon="6.73164">
        <ele>827.2</ele>
        <time>2023-08-16T16:19:13Z</time>
      </trkpt>
      <trkpt lat="46.08712" lon="6.73139">
        <ele>828.6</ele>
        <time>2023-08-16T16:19:21Z</time>
      </trkpt>
      <trkpt lat="46.0872" lon="6.73115">
        <ele>830.9</ele>
        <time>2023-08-16T16:19:29Z</time>
      </trkpt>
      <trkpt lat="46.0873" lon="6.73091">
        <ele>834.1</ele>
        <time>2023-08-16T16:19:39Z</time>
      </trkpt>
      <trkpt lat="46.08735" lon="6.73071">
        <ele>837.7</ele>
        <time>2023-08-16T16:19:46Z</time>
      </trkpt>
      <trkpt lat="46.08736" lon="6.7307">
        <ele>837.9</ele>
        <time>2023-08-16T16:19:47Z</time>
      </trkpt>
      <trkpt lat="46.08738" lon="6.73072">
        <ele>838.3</ele>
        <time>2023-08-16T16:19:49Z</time>
      </trkpt>
      <trkpt lat="46.08739" lon="6.73098">
        <ele>841</ele>
        <time>2023-08-16T16:19:58Z</time>
      </trkpt>
      <trkpt lat="46.08744" lon="6.73125">
        <ele>843.5</ele>
        <time>2023-08-16T16:20:05Z</time>
      </trkpt>
      <trkpt lat="46.08753" lon="6.7315">
        <ele>845</ele>
        <time>2023-08-16T16:20:12Z</time>
      </trkpt>
      <trkpt lat="46.08765" lon="6.73174">
        <ele>846.4</ele>
        <time>2023-08-16T16:20:19Z</time>
      </trkpt>
      <trkpt lat="46.08774" lon="6.73199">
        <ele>848.6</ele>
        <time>2023-08-16T16:20:26Z</time>
      </trkpt>
      <trkpt lat="46.08787" lon="6.73218">
        <ele>851.1</ele>
        <time>2023-08-16T16:20:34Z</time>
      </trkpt>
      <trkpt lat="46.08803" lon="6.73235">
        <ele>853</ele>
        <time>2023-08-16T16:20:41Z</time>
      </trkpt>
      <trkpt lat="46.08819" lon="6.73253">
        <ele>854.3</ele>
        <time>2023-08-16T16:20:47Z</time>
      </trkpt>
      <trkpt lat="46.08831" lon="6.7327">
        <ele>855.4</ele>
        <time>2023-08-16T16:20:53Z</time>
      </trkpt>
      <trkpt lat="46.08848" lon="6.73287">
        <ele>857.4</ele>
        <time>2023-08-16T16:21:01Z</time>
      </trkpt>
      <trkpt lat="46.08864" lon="6.73302">
        <ele>866.9</ele>
        <time>2023-08-16T16:21:08Z</time>
      </trkpt>
      <trkpt lat="46.08881" lon="6.73314">
        <ele>877.2</ele>
        <time>2023-08-16T16:21:16Z</time>
      </trkpt>
      <trkpt lat="46.08896" lon="6.73331">
        <ele>877.2</ele>
        <time>2023-08-16T16:21:26Z</time>
      </trkpt>
      <trkpt lat="46.08887" lon="6.73307">
        <ele>877.1</ele>
        <time>2023-08-16T16:21:38Z</time>
      </trkpt>
      <trkpt lat="46.08882" lon="6.73282">
        <ele>881.6</ele>
        <time>2023-08-16T16:21:47Z</time>
      </trkpt>
      <trkpt lat="46.08874" lon="6.73255">
        <ele>885.6</ele>
        <time>2023-08-16T16:21:55Z</time>
      </trkpt>
      <trkpt lat="46.08861" lon="6.73235">
        <ele>890</ele>
        <time>2023-08-16T16:22:03Z</time>
      </trkpt>
      <trkpt lat="46.08857" lon="6.73208">
        <ele>894.4</ele>
        <time>2023-08-16T16:22:13Z</time>
      </trkpt>
      <trkpt lat="46.08864" lon="6.73188">
        <ele>898.8</ele>
        <time>2023-08-16T16:22:23Z</time>
      </trkpt>
      <trkpt lat="46.0888" lon="6.73202">
        <ele>903.9</ele>
        <time>2023-08-16T16:22:35Z</time>
      </trkpt>
      <trkpt lat="46.08893" lon="6.7322">
        <ele>908.5</ele>
        <time>2023-08-16T16:22:47Z</time>
      </trkpt>
      <trkpt lat="46.0891" lon="6.73234">
        <ele>912.9</ele>
        <time>2023-08-16T16:22:58Z</time>
      </trkpt>
      <trkpt lat="46.08927" lon="6.73245">
        <ele>916.9</ele>
        <time>2023-08-16T16:23:09Z</time>
      </trkpt>
      <trkpt lat="46.0894" lon="6.73264">
        <ele>920.6</ele>
        <time>2023-08-16T16:23:17Z</time>
      </trkpt>
      <trkpt lat="46.08955" lon="6.73279">
        <ele>924.7</ele>
        <time>2023-08-16T16:23:26Z</time>
      </trkpt>
      <trkpt lat="46.08973" lon="6.73289">
        <ele>928.8</ele>
        <time>2023-08-16T16:23:36Z</time>
      </trkpt>
      <trkpt lat="46.08991" lon="6.73295">
        <ele>932</ele>
        <time>2023-08-16T16:23:46Z</time>
      </trkpt>
      <trkpt lat="46.09007" lon="6.73307">
        <ele>935.8</ele>
        <time>2023-08-16T16:23:59Z</time>
      </trkpt>
      <trkpt lat="46.09018" lon="6.7332">
        <ele>938.8</ele>
        <time>2023-08-16T16:24:08Z</time>
      </trkpt>
      <trkpt lat="46.09037" lon="6.73328">
        <ele>943.2</ele>
        <time>2023-08-16T16:24:17Z</time>
      </trkpt>
      <trkpt lat="46.09053" lon="6.73342">
        <ele>947.5</ele>
        <time>2023-08-16T16:24:25Z</time>
      </trkpt>
      <trkpt lat="46.09065" lon="6.73363">
        <ele>951.6</ele>
        <time>2023-08-16T16:24:33Z</time>
      </trkpt>
      <trkpt lat="46.09078" lon="6.73382">
        <ele>956.7</ele>
        <time>2023-08-16T16:24:42Z</time>
      </trkpt>
      <trkpt lat="46.09082" lon="6.73385">
        <ele>958.1</ele>
        <time>2023-08-16T16:24:45Z</time>
      </trkpt>
      <trkpt lat="46.09084" lon="6.73359">
        <ele>963.4</ele>
        <time>2023-08-16T16:25:00Z</time>
      </trkpt>
      <trkpt lat="46.09088" lon="6.73333">
        <ele>968.5</ele>
        <time>2023-08-16T16:25:12Z</time>
      </trkpt>
      <trkpt lat="46.09088" lon="6.7331">
        <ele>972.9</ele>
        <time>2023-08-16T16:25:23Z</time>
      </trkpt>
      <trkpt lat="46.0909" lon="6.73289">
        <ele>977.1</ele>
        <time>2023-08-16T16:25:33Z</time>
      </trkpt>
      <trkpt lat="46.09109" lon="6.73286">
        <ele>982.5</ele>
        <time>2023-08-16T16:25:47Z</time>
      </trkpt>
      <trkpt lat="46.0911" lon="6.73286">
        <ele>983</ele>
        <time>2023-08-16T16:25:51Z</time>
      </trkpt>
      <trkpt lat="46.09111" lon="6.73289">
        <ele>983.7</ele>
        <time>2023-08-16T16:25:53Z</time>
      </trkpt>
      <trkpt lat="46.09113" lon="6.73292">
        <ele>984.6</ele>
        <time>2023-08-16T16:25:56Z</time>
      </trkpt>
      <trkpt lat="46.09117" lon="6.73298">
        <ele>986.6</ele>
        <time>2023-08-16T16:26:01Z</time>
      </trkpt>
      <trkpt lat="46.09135" lon="6.73297">
        <ele>991.7</ele>
        <time>2023-08-16T16:26:11Z</time>
      </trkpt>
      <trkpt lat="46.09154" lon="6.73291">
        <ele>994.9</ele>
        <time>2023-08-16T16:26:19Z</time>
      </trkpt>
      <trkpt lat="46.0917" lon="6.73277">
        <ele>998.1</ele>
        <time>2023-08-16T16:26:28Z</time>
      </trkpt>
      <trkpt lat="46.09184" lon="6.73259">
        <ele>1001.5</ele>
        <time>2023-08-16T16:26:39Z</time>
      </trkpt>
      <trkpt lat="46.09197" lon="6.7324">
        <ele>1004.8</ele>
        <time>2023-08-16T16:26:51Z</time>
      </trkpt>
      <trkpt lat="46.09207" lon="6.73217">
        <ele>1008.5</ele>
        <time>2023-08-16T16:26:59Z</time>
      </trkpt>
      <trkpt lat="46.09217" lon="6.73194">
        <ele>1012.3</ele>
        <time>2023-08-16T16:27:10Z</time>
      </trkpt>
      <trkpt lat="46.09224" lon="6.73168">
        <ele>1015.9</ele>
        <time>2023-08-16T16:27:19Z</time>
      </trkpt>
      <trkpt lat="46.09225" lon="6.73142">
        <ele>1018.9</ele>
        <time>2023-08-16T16:27:27Z</time>
      </trkpt>
      <trkpt lat="46.09229" lon="6.73116">
        <ele>1022.1</ele>
        <time>2023-08-16T16:27:36Z</time>
      </trkpt>
      <trkpt lat="46.09231" lon="6.73089">
        <ele>1025.1</ele>
        <time>2023-08-16T16:27:44Z</time>
      </trkpt>
      <trkpt lat="46.09228" lon="6.73061">
        <ele>1027.9</ele>
        <time>2023-08-16T16:27:53Z</time>
      </trkpt>
      <trkpt lat="46.09228" lon="6.73034">
        <ele>1030.6</ele>
        <time>2023-08-16T16:28:03Z</time>
      </trkpt>
      <trkpt lat="46.09226" lon="6.73006">
        <ele>1033.2</ele>
        <time>2023-08-16T16:28:11Z</time>
      </trkpt>
      <trkpt lat="46.09228" lon="6.72979">
        <ele>1036</ele>
        <time>2023-08-16T16:28:20Z</time>
      </trkpt>
      <trkpt lat="46.09236" lon="6.72954">
        <ele>1039.7</ele>
        <time>2023-08-16T16:28:30Z</time>
      </trkpt>
      <trkpt lat="46.09246" lon="6.72929">
        <ele>1042.9</ele>
        <time>2023-08-16T16:28:38Z</time>
      </trkpt>
      <trkpt lat="46.09256" lon="6.72906">
        <ele>1045.6</ele>
        <time>2023-08-16T16:28:46Z</time>
      </trkpt>
      <trkpt lat="46.09263" lon="6.7288">
        <ele>1049.8</ele>
        <time>2023-08-16T16:28:57Z</time>
      </trkpt>
      <trkpt lat="46.09278" lon="6.72864">
        <ele>1052.9</ele>
        <time>2023-08-16T16:29:04Z</time>
      </trkpt>
      <trkpt lat="46.0929" lon="6.72843">
        <ele>1056</ele>
        <time>2023-08-16T16:29:12Z</time>
      </trkpt>
      <trkpt lat="46.09306" lon="6.72829">
        <ele>1060.2</ele>
        <time>2023-08-16T16:29:26Z</time>
      </trkpt>
      <trkpt lat="46.09308" lon="6.72827">
        <ele>1060.7</ele>
        <time>2023-08-16T16:29:28Z</time>
      </trkpt>
      <trkpt lat="46.09319" lon="6.72805">
        <ele>1064.9</ele>
        <time>2023-08-16T16:29:38Z</time>
      </trkpt>
      <trkpt lat="46.09324" lon="6.7279">
        <ele>1067.7</ele>
        <time>2023-08-16T16:29:46Z</time>
      </trkpt>
      <trkpt lat="46.09325" lon="6.72786">
        <ele>1068.4</ele>
        <time>2023-08-16T16:29:48Z</time>
      </trkpt>
      <trkpt lat="46.09332" lon="6.72773">
        <ele>1070.5</ele>
        <time>2023-08-16T16:29:56Z</time>
      </trkpt>
      <trkpt lat="46.09333" lon="6.72782">
        <ele>1069.2</ele>
        <time>2023-08-16T16:30:08Z</time>
      </trkpt>
      <trkpt lat="46.09332" lon="6.72787">
        <ele>1068.9</ele>
        <time>2023-08-16T16:30:11Z</time>
      </trkpt>
      <trkpt lat="46.09331" lon="6.72796">
        <ele>1068.3</ele>
        <time>2023-08-16T16:30:16Z</time>
      </trkpt>
      <trkpt lat="46.09328" lon="6.72804">
        <ele>1066.6</ele>
        <time>2023-08-16T16:30:20Z</time>
      </trkpt>
      <trkpt lat="46.09312" lon="6.72821">
        <ele>1062.2</ele>
        <time>2023-08-16T16:30:28Z</time>
      </trkpt>
      <trkpt lat="46.09308" lon="6.72824">
        <ele>1061.4</ele>
        <time>2023-08-16T16:30:30Z</time>
      </trkpt>
      <trkpt lat="46.09303" lon="6.72831">
        <ele>1059.7</ele>
        <time>2023-08-16T16:30:32Z</time>
      </trkpt>
      <trkpt lat="46.0929" lon="6.7285">
        <ele>1055.5</ele>
        <time>2023-08-16T16:30:38Z</time>
      </trkpt>
      <trkpt lat="46.09277" lon="6.72864">
        <ele>1053.1</ele>
        <time>2023-08-16T16:30:46Z</time>
      </trkpt>
      <trkpt lat="46.09272" lon="6.72891">
        <ele>1049.9</ele>
        <time>2023-08-16T16:30:55Z</time>
      </trkpt>
      <trkpt lat="46.09262" lon="6.72916">
        <ele>1045.7</ele>
        <time>2023-08-16T16:31:02Z</time>
      </trkpt>
      <trkpt lat="46.09252" lon="6.72938">
        <ele>1043</ele>
        <time>2023-08-16T16:31:09Z</time>
      </trkpt>
      <trkpt lat="46.09244" lon="6.72963">
        <ele>1040.1</ele>
        <time>2023-08-16T16:31:14Z</time>
      </trkpt>
      <trkpt lat="46.0924" lon="6.72991">
        <ele>1036.2</ele>
        <time>2023-08-16T16:31:20Z</time>
      </trkpt>
      <trkpt lat="46.09238" lon="6.7302">
        <ele>1033.2</ele>
        <time>2023-08-16T16:31:26Z</time>
      </trkpt>
      <trkpt lat="46.09238" lon="6.73048">
        <ele>1030.7</ele>
        <time>2023-08-16T16:31:32Z</time>
      </trkpt>
      <trkpt lat="46.09239" lon="6.73076">
        <ele>1028</ele>
        <time>2023-08-16T16:31:38Z</time>
      </trkpt>
      <trkpt lat="46.09238" lon="6.73106">
        <ele>1025</ele>
        <time>2023-08-16T16:31:45Z</time>
      </trkpt>
      <trkpt lat="46.09238" lon="6.73132">
        <ele>1022.3</ele>
        <time>2023-08-16T16:31:51Z</time>
      </trkpt>
      <trkpt lat="46.09232" lon="6.73166">
        <ele>1018.1</ele>
        <time>2023-08-16T16:31:58Z</time>
      </trkpt>
      <trkpt lat="46.09225" lon="6.73194">
        <ele>1014.6</ele>
        <time>2023-08-16T16:32:05Z</time>
      </trkpt>
      <trkpt lat="46.09221" lon="6.73221">
        <ele>1010.9</ele>
        <time>2023-08-16T16:32:14Z</time>
      </trkpt>
      <trkpt lat="46.09214" lon="6.73246">
        <ele>1007.3</ele>
        <time>2023-08-16T16:32:21Z</time>
      </trkpt>
      <trkpt lat="46.09213" lon="6.73251">
        <ele>1006.5</ele>
        <time>2023-08-16T16:32:23Z</time>
      </trkpt>
      <trkpt lat="46.09198" lon="6.73267">
        <ele>1003.1</ele>
        <time>2023-08-16T16:32:31Z</time>
      </trkpt>
      <trkpt lat="46.09183" lon="6.73281">
        <ele>999.9</ele>
        <time>2023-08-16T16:32:39Z</time>
      </trkpt>
      <trkpt lat="46.09165" lon="6.73291">
        <ele>996.6</ele>
        <time>2023-08-16T16:32:47Z</time>
      </trkpt>
      <trkpt lat="46.09147" lon="6.73297">
        <ele>993.6</ele>
        <time>2023-08-16T16:32:56Z</time>
      </trkpt>
      <trkpt lat="46.09129" lon="6.73293">
        <ele>990.4</ele>
        <time>2023-08-16T16:33:06Z</time>
      </trkpt>
      <trkpt lat="46.09116" lon="6.73273">
        <ele>982.1</ele>
        <time>2023-08-16T16:33:15Z</time>
      </trkpt>
      <trkpt lat="46.09102" lon="6.73287">
        <ele>978.4</ele>
        <time>2023-08-16T16:33:25Z</time>
      </trkpt>
      <trkpt lat="46.09097" lon="6.73314">
        <ele>973.5</ele>
        <time>2023-08-16T16:33:33Z</time>
      </trkpt>
      <trkpt lat="46.09093" lon="6.7334">
        <ele>968.6</ele>
        <time>2023-08-16T16:33:42Z</time>
      </trkpt>
      <trkpt lat="46.09092" lon="6.73368">
        <ele>963.6</ele>
        <time>2023-08-16T16:33:53Z</time>
      </trkpt>
      <trkpt lat="46.09102" lon="6.7339">
        <ele>958.5</ele>
        <time>2023-08-16T16:34:03Z</time>
      </trkpt>
      <trkpt lat="46.09102" lon="6.73391">
        <ele>958.3</ele>
        <time>2023-08-16T16:34:05Z</time>
      </trkpt>
      <trkpt lat="46.09101" lon="6.73389">
        <ele>957.7</ele>
        <time>2023-08-16T16:34:08Z</time>
      </trkpt>
      <trkpt lat="46.09085" lon="6.73373">
        <ele>952.5</ele>
        <time>2023-08-16T16:34:20Z</time>
      </trkpt>
      <trkpt lat="46.09069" lon="6.73358">
        <ele>948.4</ele>
        <time>2023-08-16T16:34:31Z</time>
      </trkpt>
      <trkpt lat="46.0905" lon="6.73351">
        <ele>944.4</ele>
        <time>2023-08-16T16:34:41Z</time>
      </trkpt>
      <trkpt lat="46.09031" lon="6.7334">
        <ele>939.9</ele>
        <time>2023-08-16T16:34:51Z</time>
      </trkpt>
      <trkpt lat="46.09014" lon="6.73327">
        <ele>936</ele>
        <time>2023-08-16T16:34:58Z</time>
      </trkpt>
      <trkpt lat="46.09004" lon="6.73319">
        <ele>933.4</ele>
        <time>2023-08-16T16:35:03Z</time>
      </trkpt>
      <trkpt lat="46.09005" lon="6.73318">
        <ele>933.6</ele>
        <time>2023-08-16T16:35:05Z</time>
      </trkpt>
      <trkpt lat="46.09007" lon="6.73319">
        <ele>934.2</ele>
        <time>2023-08-16T16:35:07Z</time>
      </trkpt>
      <trkpt lat="46.09024" lon="6.7333">
        <ele>938.6</ele>
        <time>2023-08-16T16:35:23Z</time>
      </trkpt>
      <trkpt lat="46.09041" lon="6.73339">
        <ele>942.9</ele>
        <time>2023-08-16T16:35:35Z</time>
      </trkpt>
      <trkpt lat="46.09046" lon="6.73338">
        <ele>944</ele>
        <time>2023-08-16T16:35:40Z</time>
      </trkpt>
      <trkpt lat="46.09059" lon="6.73355">
        <ele>948.2</ele>
        <time>2023-08-16T16:35:51Z</time>
      </trkpt>
      <trkpt lat="46.09073" lon="6.73375">
        <ele>953.3</ele>
        <time>2023-08-16T16:35:59Z</time>
      </trkpt>
      <trkpt lat="46.0908" lon="6.73383">
        <ele>956</ele>
        <time>2023-08-16T16:36:05Z</time>
      </trkpt>
      <trkpt lat="46.09083" lon="6.73355">
        <ele>962.2</ele>
        <time>2023-08-16T16:36:19Z</time>
      </trkpt>
      <trkpt lat="46.09085" lon="6.73327">
        <ele>968</ele>
        <time>2023-08-16T16:36:30Z</time>
      </trkpt>
      <trkpt lat="46.09083" lon="6.73302">
        <ele>973.1</ele>
        <time>2023-08-16T16:36:43Z</time>
      </trkpt>
      <trkpt lat="46.09084" lon="6.73296">
        <ele>974.4</ele>
        <time>2023-08-16T16:36:46Z</time>
      </trkpt>
      <trkpt lat="46.0909" lon="6.7328">
        <ele>978.3</ele>
        <time>2023-08-16T16:36:55Z</time>
      </trkpt>
      <trkpt lat="46.09103" lon="6.7328">
        <ele>981</ele>
        <time>2023-08-16T16:37:08Z</time>
      </trkpt>
      <trkpt lat="46.09105" lon="6.73284">
        <ele>982.2</ele>
        <time>2023-08-16T16:37:12Z</time>
      </trkpt>
      <trkpt lat="46.09108" lon="6.7329">
        <ele>983.9</ele>
        <time>2023-08-16T16:37:16Z</time>
      </trkpt>
      <trkpt lat="46.09118" lon="6.73292">
        <ele>987.2</ele>
        <time>2023-08-16T16:37:22Z</time>
      </trkpt>
      <trkpt lat="46.09137" lon="6.73291">
        <ele>992.1</ele>
        <time>2023-08-16T16:37:31Z</time>
      </trkpt>
      <trkpt lat="46.09156" lon="6.73285">
        <ele>995.5</ele>
        <time>2023-08-16T16:37:41Z</time>
      </trkpt>
      <trkpt lat="46.09172" lon="6.73271">
        <ele>998.8</ele>
        <time>2023-08-16T16:37:50Z</time>
      </trkpt>
      <trkpt lat="46.09188" lon="6.73255">
        <ele>1002.3</ele>
        <time>2023-08-16T16:38:02Z</time>
      </trkpt>
      <trkpt lat="46.092" lon="6.73234">
        <ele>1005.7</ele>
        <time>2023-08-16T16:38:12Z</time>
      </trkpt>
      <trkpt lat="46.09207" lon="6.7321">
        <ele>1009.3</ele>
        <time>2023-08-16T16:38:22Z</time>
      </trkpt>
      <trkpt lat="46.09216" lon="6.73187">
        <ele>1013.1</ele>
        <time>2023-08-16T16:38:32Z</time>
      </trkpt>
      <trkpt lat="46.0922" lon="6.7316">
        <ele>1016.5</ele>
        <time>2023-08-16T16:38:42Z</time>
      </trkpt>
      <trkpt lat="46.09222" lon="6.73132">
        <ele>1019.8</ele>
        <time>2023-08-16T16:38:52Z</time>
      </trkpt>
      <trkpt lat="46.09227" lon="6.73107">
        <ele>1022.9</ele>
        <time>2023-08-16T16:39:00Z</time>
      </trkpt>
      <trkpt lat="46.09227" lon="6.73079">
        <ele>1025.8</ele>
        <time>2023-08-16T16:39:08Z</time>
      </trkpt>
      <trkpt lat="46.09227" lon="6.73053">
        <ele>1028.4</ele>
        <time>2023-08-16T16:39:17Z</time>
      </trkpt>
      <trkpt lat="46.09227" lon="6.73026">
        <ele>1031</ele>
        <time>2023-08-16T16:39:25Z</time>
      </trkpt>
      <trkpt lat="46.09229" lon="6.73">
        <ele>1033.4</ele>
        <time>2023-08-16T16:39:33Z</time>
      </trkpt>
      <trkpt lat="46.09233" lon="6.72974">
        <ele>1036.3</ele>
        <time>2023-08-16T16:39:42Z</time>
      </trkpt>
      <trkpt lat="46.09235" lon="6.72948">
        <ele>1039.9</ele>
        <time>2023-08-16T16:39:52Z</time>
      </trkpt>
      <trkpt lat="46.09242" lon="6.72922">
        <ele>1042.8</ele>
        <time>2023-08-16T16:39:58Z</time>
      </trkpt>
      <trkpt lat="46.09248" lon="6.72898">
        <ele>1045.5</ele>
        <time>2023-08-16T16:40:06Z</time>
      </trkpt>
      <trkpt lat="46.09254" lon="6.72878">
        <ele>1048.6</ele>
        <time>2023-08-16T16:40:15Z</time>
      </trkpt>
      <trkpt lat="46.0927" lon="6.72863">
        <ele>1052.3</ele>
        <time>2023-08-16T16:40:23Z</time>
      </trkpt>
      <trkpt lat="46.09286" lon="6.72846">
        <ele>1055.2</ele>
        <time>2023-08-16T16:40:31Z</time>
      </trkpt>
      <trkpt lat="46.09301" lon="6.72831">
        <ele>1059.4</ele>
        <time>2023-08-16T16:40:41Z</time>
      </trkpt>
      <trkpt lat="46.09314" lon="6.72812">
        <ele>1063.5</ele>
        <time>2023-08-16T16:40:52Z</time>
      </trkpt>
      <trkpt lat="46.09321" lon="6.72795">
        <ele>1066.5</ele>
        <time>2023-08-16T16:41:01Z</time>
      </trkpt>
      <trkpt lat="46.09328" lon="6.72769">
        <ele>1070.9</ele>
        <time>2023-08-16T16:41:12Z</time>
      </trkpt>
      <trkpt lat="46.09337" lon="6.72746">
        <ele>1075.2</ele>
        <time>2023-08-16T16:41:21Z</time>
      </trkpt>
      <trkpt lat="46.09342" lon="6.72721">
        <ele>1079.5</ele>
        <time>2023-08-16T16:41:31Z</time>
      </trkpt>
      <trkpt lat="46.09344" lon="6.72718">
        <ele>1080</ele>
        <time>2023-08-16T16:41:32Z</time>
      </trkpt>
      <trkpt lat="46.09357" lon="6.72696">
        <ele>1084.9</ele>
        <time>2023-08-16T16:41:42Z</time>
      </trkpt>
      <trkpt lat="46.09374" lon="6.72682">
        <ele>1088.5</ele>
        <time>2023-08-16T16:41:51Z</time>
      </trkpt>
      <trkpt lat="46.09392" lon="6.7267">
        <ele>1091.8</ele>
        <time>2023-08-16T16:42:01Z</time>
      </trkpt>
      <trkpt lat="46.09407" lon="6.72656">
        <ele>1095.4</ele>
        <time>2023-08-16T16:42:12Z</time>
      </trkpt>
      <trkpt lat="46.09423" lon="6.72641">
        <ele>1099.5</ele>
        <time>2023-08-16T16:42:21Z</time>
      </trkpt>
      <trkpt lat="46.09441" lon="6.72633">
        <ele>1103.8</ele>
        <time>2023-08-16T16:42:32Z</time>
      </trkpt>
      <trkpt lat="46.09458" lon="6.7262">
        <ele>1108.3</ele>
        <time>2023-08-16T16:42:45Z</time>
      </trkpt>
      <trkpt lat="46.09473" lon="6.72602">
        <ele>1111.2</ele>
        <time>2023-08-16T16:42:53Z</time>
      </trkpt>
      <trkpt lat="46.09489" lon="6.72586">
        <ele>1111.9</ele>
        <time>2023-08-16T16:43:00Z</time>
      </trkpt>
      <trkpt lat="46.09508" lon="6.72574">
        <ele>1110.7</ele>
        <time>2023-08-16T16:43:05Z</time>
      </trkpt>
      <trkpt lat="46.09526" lon="6.72562">
        <ele>1110.6</ele>
        <time>2023-08-16T16:43:10Z</time>
      </trkpt>
      <trkpt lat="46.09545" lon="6.72545">
        <ele>1110.8</ele>
        <time>2023-08-16T16:43:15Z</time>
      </trkpt>
      <trkpt lat="46.09565" lon="6.72535">
        <ele>1111.7</ele>
        <time>2023-08-16T16:43:21Z</time>
      </trkpt>
      <trkpt lat="46.09581" lon="6.72523">
        <ele>1112.6</ele>
        <time>2023-08-16T16:43:27Z</time>
      </trkpt>
      <trkpt lat="46.09597" lon="6.72507">
        <ele>1112.6</ele>
        <time>2023-08-16T16:43:32Z</time>
      </trkpt>
      <trkpt lat="46.09615" lon="6.7249">
        <ele>1111.9</ele>
        <time>2023-08-16T16:43:37Z</time>
      </trkpt>
      <trkpt lat="46.09631" lon="6.72475">
        <ele>1111.3</ele>
        <time>2023-08-16T16:43:42Z</time>
      </trkpt>
      <trkpt lat="46.09647" lon="6.72461">
        <ele>1111.8</ele>
        <time>2023-08-16T16:43:47Z</time>
      </trkpt>
      <trkpt lat="46.09664" lon="6.72449">
        <ele>1113.2</ele>
        <time>2023-08-16T16:43:53Z</time>
      </trkpt>
      <trkpt lat="46.09679" lon="6.72437">
        <ele>1114.8</ele>
        <time>2023-08-16T16:43:59Z</time>
      </trkpt>
      <trkpt lat="46.09689" lon="6.72441">
        <ele>1116.8</ele>
        <time>2023-08-16T16:44:05Z</time>
      </trkpt>
      <trkpt lat="46.09691" lon="6.72461">
        <ele>1121</ele>
        <time>2023-08-16T16:44:14Z</time>
      </trkpt>
      <trkpt lat="46.09677" lon="6.72478">
        <ele>1123.4</ele>
        <time>2023-08-16T16:44:26Z</time>
      </trkpt>
      <trkpt lat="46.09662" lon="6.72498">
        <ele>1126.5</ele>
        <time>2023-08-16T16:44:36Z</time>
      </trkpt>
      <trkpt lat="46.09646" lon="6.72516">
        <ele>1129.5</ele>
        <time>2023-08-16T16:44:42Z</time>
      </trkpt>
      <trkpt lat="46.09632" lon="6.72535">
        <ele>1131.7</ele>
        <time>2023-08-16T16:44:49Z</time>
      </trkpt>
      <trkpt lat="46.09619" lon="6.72554">
        <ele>1134.4</ele>
        <time>2023-08-16T16:44:56Z</time>
      </trkpt>
      <trkpt lat="46.09604" lon="6.72571">
        <ele>1137.7</ele>
        <time>2023-08-16T16:45:03Z</time>
      </trkpt>
      <trkpt lat="46.09596" lon="6.72578">
        <ele>1138.9</ele>
        <time>2023-08-16T16:45:07Z</time>
      </trkpt>
      <trkpt lat="46.096" lon="6.72573">
        <ele>1139.5</ele>
        <time>2023-08-16T16:45:10Z</time>
      </trkpt>
      <trkpt lat="46.09614" lon="6.72556">
        <ele>1136.5</ele>
        <time>2023-08-16T16:45:19Z</time>
      </trkpt>
      <trkpt lat="46.0963" lon="6.72538">
        <ele>1132.8</ele>
        <time>2023-08-16T16:45:28Z</time>
      </trkpt>
      <trkpt lat="46.09644" lon="6.7252">
        <ele>1130.2</ele>
        <time>2023-08-16T16:45:35Z</time>
      </trkpt>
      <trkpt lat="46.09658" lon="6.72502">
        <ele>1127.4</ele>
        <time>2023-08-16T16:45:44Z</time>
      </trkpt>
      <trkpt lat="46.09675" lon="6.72487">
        <ele>1123.9</ele>
        <time>2023-08-16T16:45:53Z</time>
      </trkpt>
      <trkpt lat="46.09692" lon="6.72474">
        <ele>1121</ele>
        <time>2023-08-16T16:46:03Z</time>
      </trkpt>
      <trkpt lat="46.09694" lon="6.72471">
        <ele>1120.3</ele>
        <time>2023-08-16T16:46:05Z</time>
      </trkpt>
      <trkpt lat="46.09694" lon="6.72467">
        <ele>1119.4</ele>
        <time>2023-08-16T16:46:08Z</time>
      </trkpt>
      <trkpt lat="46.09681" lon="6.7245">
        <ele>1115.3</ele>
        <time>2023-08-16T16:46:21Z</time>
      </trkpt>
      <trkpt lat="46.09678" lon="6.72454">
        <ele>1114.6</ele>
        <time>2023-08-16T16:46:26Z</time>
      </trkpt>
      <trkpt lat="46.09671" lon="6.7246">
        <ele>1113.7</ele>
        <time>2023-08-16T16:46:30Z</time>
      </trkpt>
      <trkpt lat="46.09656" lon="6.72475">
        <ele>1112.3</ele>
        <time>2023-08-16T16:46:39Z</time>
      </trkpt>
      <trkpt lat="46.0964" lon="6.72491">
        <ele>1111.3</ele>
        <time>2023-08-16T16:46:45Z</time>
      </trkpt>
      <trkpt lat="46.09626" lon="6.72507">
        <ele>1111.7</ele>
        <time>2023-08-16T16:46:53Z</time>
      </trkpt>
      <trkpt lat="46.0961" lon="6.72521">
        <ele>1112.3</ele>
        <time>2023-08-16T16:47:03Z</time>
      </trkpt>
      <trkpt lat="46.09592" lon="6.72534">
        <ele>1112.7</ele>
        <time>2023-08-16T16:47:12Z</time>
      </trkpt>
      <trkpt lat="46.09573" lon="6.72544">
        <ele>1111.9</ele>
        <time>2023-08-16T16:47:19Z</time>
      </trkpt>
      <trkpt lat="46.09555" lon="6.72553">
        <ele>1110.9</ele>
        <time>2023-08-16T16:47:26Z</time>
      </trkpt>
      <trkpt lat="46.09537" lon="6.72566">
        <ele>1110.7</ele>
        <time>2023-08-16T16:47:33Z</time>
      </trkpt>
      <trkpt lat="46.0952" lon="6.72585">
        <ele>1110.6</ele>
        <time>2023-08-16T16:47:44Z</time>
      </trkpt>
      <trkpt lat="46.09505" lon="6.72601">
        <ele>1111.5</ele>
        <time>2023-08-16T16:47:50Z</time>
      </trkpt>
      <trkpt lat="46.09489" lon="6.72615">
        <ele>1111.7</ele>
        <time>2023-08-16T16:47:58Z</time>
      </trkpt>
      <trkpt lat="46.0948" lon="6.72621">
        <ele>1110.7</ele>
        <time>2023-08-16T16:48:02Z</time>
      </trkpt>
      <trkpt lat="46.09458" lon="6.72631">
        <ele>1106.5</ele>
        <time>2023-08-16T16:48:08Z</time>
      </trkpt>
      <trkpt lat="46.09441" lon="6.72645">
        <ele>1101.6</ele>
        <time>2023-08-16T16:48:15Z</time>
      </trkpt>
      <trkpt lat="46.09423" lon="6.7266">
        <ele>1096.7</ele>
        <time>2023-08-16T16:48:23Z</time>
      </trkpt>
      <trkpt lat="46.09403" lon="6.72669">
        <ele>1092.4</ele>
        <time>2023-08-16T16:48:29Z</time>
      </trkpt>
      <trkpt lat="46.09387" lon="6.72684">
        <ele>1088.9</ele>
        <time>2023-08-16T16:48:34Z</time>
      </trkpt>
      <trkpt lat="46.0937" lon="6.72702">
        <ele>1085.2</ele>
        <time>2023-08-16T16:48:41Z</time>
      </trkpt>
      <trkpt lat="46.09358" lon="6.72722">
        <ele>1080.6</ele>
        <time>2023-08-16T16:48:48Z</time>
      </trkpt>
      <trkpt lat="46.09347" lon="6.72746">
        <ele>1075.7</ele>
        <time>2023-08-16T16:48:56Z</time>
      </trkpt>
      <trkpt lat="46.09345" lon="6.72773">
        <ele>1071.2</ele>
        <time>2023-08-16T16:49:07Z</time>
      </trkpt>
      <trkpt lat="46.09344" lon="6.72775">
        <ele>1070.8</ele>
        <time>2023-08-16T16:49:08Z</time>
      </trkpt>
      <trkpt lat="46.0933" lon="6.72796">
        <ele>1068</ele>
        <time>2023-08-16T16:49:17Z</time>
      </trkpt>
      <trkpt lat="46.09315" lon="6.72814">
        <ele>1063.5</ele>
        <time>2023-08-16T16:49:26Z</time>
      </trkpt>
      <trkpt lat="46.09314" lon="6.72816">
        <ele>1063.1</ele>
        <time>2023-08-16T16:49:27Z</time>
      </trkpt>
      <trkpt lat="46.09299" lon="6.72835">
        <ele>1058.6</ele>
        <time>2023-08-16T16:49:33Z</time>
      </trkpt>
      <trkpt lat="46.09286" lon="6.72854">
        <ele>1054.5</ele>
        <time>2023-08-16T16:49:42Z</time>
      </trkpt>
      <trkpt lat="46.09279" lon="6.72882">
        <ele>1051.6</ele>
        <time>2023-08-16T16:49:49Z</time>
      </trkpt>
      <trkpt lat="46.09265" lon="6.72903">
        <ele>1047.3</ele>
        <time>2023-08-16T16:49:53Z</time>
      </trkpt>
      <trkpt lat="46.09255" lon="6.72925">
        <ele>1044</ele>
        <time>2023-08-16T16:50:00Z</time>
      </trkpt>
      <trkpt lat="46.09252" lon="6.72953">
        <ele>1041.3</ele>
        <time>2023-08-16T16:50:08Z</time>
      </trkpt>
      <trkpt lat="46.09247" lon="6.72982">
        <ele>1037.5</ele>
        <time>2023-08-16T16:50:15Z</time>
      </trkpt>
      <trkpt lat="46.09244" lon="6.73009">
        <ele>1034.1</ele>
        <time>2023-08-16T16:50:21Z</time>
      </trkpt>
      <trkpt lat="46.09244" lon="6.73036">
        <ele>1031.7</ele>
        <time>2023-08-16T16:50:28Z</time>
      </trkpt>
      <trkpt lat="46.09244" lon="6.73065">
        <ele>1028.9</ele>
        <time>2023-08-16T16:50:35Z</time>
      </trkpt>
      <trkpt lat="46.0924" lon="6.73092">
        <ele>1026.2</ele>
        <time>2023-08-16T16:50:42Z</time>
      </trkpt>
      <trkpt lat="46.09238" lon="6.73121">
        <ele>1023.1</ele>
        <time>2023-08-16T16:50:50Z</time>
      </trkpt>
      <trkpt lat="46.09232" lon="6.73149">
        <ele>1019.6</ele>
        <time>2023-08-16T16:50:56Z</time>
      </trkpt>
      <trkpt lat="46.09225" lon="6.73174">
        <ele>1016.5</ele>
        <time>2023-08-16T16:51:03Z</time>
      </trkpt>
      <trkpt lat="46.09222" lon="6.732">
        <ele>1013.2</ele>
        <time>2023-08-16T16:51:10Z</time>
      </trkpt>
      <trkpt lat="46.09216" lon="6.73226">
        <ele>1009.4</ele>
        <time>2023-08-16T16:51:16Z</time>
      </trkpt>
      <trkpt lat="46.09204" lon="6.73251">
        <ele>1005.2</ele>
        <time>2023-08-16T16:51:23Z</time>
      </trkpt>
      <trkpt lat="46.09187" lon="6.73268">
        <ele>1001.3</ele>
        <time>2023-08-16T16:51:32Z</time>
      </trkpt>
      <trkpt lat="46.09172" lon="6.73288">
        <ele>997.8</ele>
        <time>2023-08-16T16:51:37Z</time>
      </trkpt>
      <trkpt lat="46.09156" lon="6.73299">
        <ele>994.7</ele>
        <time>2023-08-16T16:51:44Z</time>
      </trkpt>
      <trkpt lat="46.09138" lon="6.73301">
        <ele>992.1</ele>
        <time>2023-08-16T16:51:53Z</time>
      </trkpt>
      <trkpt lat="46.09136" lon="6.733">
        <ele>991.7</ele>
        <time>2023-08-16T16:51:54Z</time>
      </trkpt>
      <trkpt lat="46.09124" lon="6.73291">
        <ele>988.2</ele>
        <time>2023-08-16T16:52:02Z</time>
      </trkpt>
      <trkpt lat="46.09109" lon="6.73278">
        <ele>982.6</ele>
        <time>2023-08-16T16:52:13Z</time>
      </trkpt>
      <trkpt lat="46.09105" lon="6.73279">
        <ele>981</ele>
        <time>2023-08-16T16:52:16Z</time>
      </trkpt>
      <trkpt lat="46.09092" lon="6.73302">
        <ele>974.3</ele>
        <time>2023-08-16T16:52:22Z</time>
      </trkpt>
      <trkpt lat="46.09085" lon="6.7333">
        <ele>968.5</ele>
        <time>2023-08-16T16:52:29Z</time>
      </trkpt>
      <trkpt lat="46.09089" lon="6.73358">
        <ele>962.8</ele>
        <time>2023-08-16T16:52:36Z</time>
      </trkpt>
      <trkpt lat="46.09093" lon="6.73384">
        <ele>957.3</ele>
        <time>2023-08-16T16:52:44Z</time>
      </trkpt>
      <trkpt lat="46.09079" lon="6.73366">
        <ele>951.8</ele>
        <time>2023-08-16T16:52:54Z</time>
      </trkpt>
      <trkpt lat="46.09064" lon="6.73348">
        <ele>947.3</ele>
        <time>2023-08-16T16:53:04Z</time>
      </trkpt>
      <trkpt lat="46.09043" lon="6.73338">
        <ele>942.3</ele>
        <time>2023-08-16T16:53:14Z</time>
      </trkpt>
      <trkpt lat="46.09027" lon="6.73325">
        <ele>938.3</ele>
        <time>2023-08-16T16:53:21Z</time>
      </trkpt>
      <trkpt lat="46.09011" lon="6.73309">
        <ele>933.8</ele>
        <time>2023-08-16T16:53:28Z</time>
      </trkpt>
      <trkpt lat="46.08993" lon="6.73295">
        <ele>930.1</ele>
        <time>2023-08-16T16:53:36Z</time>
      </trkpt>
      <trkpt lat="46.08977" lon="6.73282">
        <ele>926.2</ele>
        <time>2023-08-16T16:53:42Z</time>
      </trkpt>
      <trkpt lat="46.08961" lon="6.7326">
        <ele>921.3</ele>
        <time>2023-08-16T16:53:50Z</time>
      </trkpt>
      <trkpt lat="46.08947" lon="6.73241">
        <ele>917.3</ele>
        <time>2023-08-16T16:53:56Z</time>
      </trkpt>
      <trkpt lat="46.08929" lon="6.73227">
        <ele>912.5</ele>
        <time>2023-08-16T16:54:04Z</time>
      </trkpt>
      <trkpt lat="46.0891" lon="6.73214">
        <ele>907.7</ele>
        <time>2023-08-16T16:54:12Z</time>
      </trkpt>
      <trkpt lat="46.08891" lon="6.73202">
        <ele>902.2</ele>
        <time>2023-08-16T16:54:18Z</time>
      </trkpt>
      <trkpt lat="46.08876" lon="6.73186">
        <ele>898</ele>
        <time>2023-08-16T16:54:26Z</time>
      </trkpt>
      <trkpt lat="46.08872" lon="6.73184">
        <ele>899.2</ele>
        <time>2023-08-16T16:54:30Z</time>
      </trkpt>
      <trkpt lat="46.0887" lon="6.73186">
        <ele>899.7</ele>
        <time>2023-08-16T16:54:31Z</time>
      </trkpt>
      <trkpt lat="46.08869" lon="6.73192">
        <ele>900.8</ele>
        <time>2023-08-16T16:54:34Z</time>
      </trkpt>
      <trkpt lat="46.08882" lon="6.73208">
        <ele>905.6</ele>
        <time>2023-08-16T16:54:47Z</time>
      </trkpt>
      <trkpt lat="46.08897" lon="6.73227">
        <ele>910</ele>
        <time>2023-08-16T16:55:00Z</time>
      </trkpt>
      <trkpt lat="46.08915" lon="6.73237">
        <ele>914.2</ele>
        <time>2023-08-16T16:55:11Z</time>
      </trkpt>
      <trkpt lat="46.08928" lon="6.73256">
        <ele>918.1</ele>
        <time>2023-08-16T16:55:24Z</time>
      </trkpt>
      <trkpt lat="46.0894" lon="6.73278">
        <ele>921.9</ele>
        <time>2023-08-16T16:55:34Z</time>
      </trkpt>
      <trkpt lat="46.0895" lon="6.73287">
        <ele>924.4</ele>
        <time>2023-08-16T16:55:39Z</time>
      </trkpt>
      <trkpt lat="46.08969" lon="6.73293">
        <ele>928.5</ele>
        <time>2023-08-16T16:55:47Z</time>
      </trkpt>
      <trkpt lat="46.08986" lon="6.73306">
        <ele>931.8</ele>
        <time>2023-08-16T16:56:01Z</time>
      </trkpt>
      <trkpt lat="46.09002" lon="6.73322">
        <ele>935.7</ele>
        <time>2023-08-16T16:56:09Z</time>
      </trkpt>
      <trkpt lat="46.09018" lon="6.73337">
        <ele>939.6</ele>
        <time>2023-08-16T16:56:19Z</time>
      </trkpt>
      <trkpt lat="46.09035" lon="6.73346">
        <ele>943.6</ele>
        <time>2023-08-16T16:56:29Z</time>
      </trkpt>
      <trkpt lat="46.0905" lon="6.73361">
        <ele>947.5</ele>
        <time>2023-08-16T16:56:39Z</time>
      </trkpt>
      <trkpt lat="46.09062" lon="6.7338">
        <ele>951.3</ele>
        <time>2023-08-16T16:56:48Z</time>
      </trkpt>
      <trkpt lat="46.0908" lon="6.73392">
        <ele>956.6</ele>
        <time>2023-08-16T16:56:56Z</time>
      </trkpt>
      <trkpt lat="46.0908" lon="6.73393">
        <ele>956.9</ele>
        <time>2023-08-16T16:56:59Z</time>
      </trkpt>
      <trkpt lat="46.0908" lon="6.73391">
        <ele>957.3</ele>
        <time>2023-08-16T16:57:01Z</time>
      </trkpt>
      <trkpt lat="46.09079" lon="6.73364">
        <ele>962.7</ele>
        <time>2023-08-16T16:57:17Z</time>
      </trkpt>
      <trkpt lat="46.09079" lon="6.73345">
        <ele>966.1</ele>
        <time>2023-08-16T16:57:26Z</time>
      </trkpt>
      <trkpt lat="46.09086" lon="6.73321">
        <ele>971.1</ele>
        <time>2023-08-16T16:57:35Z</time>
      </trkpt>
      <trkpt lat="46.0909" lon="6.73307">
        <ele>973.7</ele>
        <time>2023-08-16T16:57:40Z</time>
      </trkpt>
      <trkpt lat="46.09099" lon="6.73286">
        <ele>978.3</ele>
        <time>2023-08-16T16:57:50Z</time>
      </trkpt>
      <trkpt lat="46.09102" lon="6.73287">
        <ele>980.9</ele>
        <time>2023-08-16T16:57:56Z</time>
      </trkpt>
      <trkpt lat="46.09104" lon="6.73288">
        <ele>981.7</ele>
        <time>2023-08-16T16:57:58Z</time>
      </trkpt>
      <trkpt lat="46.09109" lon="6.7329">
        <ele>983.6</ele>
        <time>2023-08-16T16:58:04Z</time>
      </trkpt>
      <trkpt lat="46.09116" lon="6.73297">
        <ele>986.4</ele>
        <time>2023-08-16T16:58:13Z</time>
      </trkpt>
      <trkpt lat="46.0912" lon="6.73296">
        <ele>987.7</ele>
        <time>2023-08-16T16:58:17Z</time>
      </trkpt>
      <trkpt lat="46.09122" lon="6.73296">
        <ele>988.2</ele>
        <time>2023-08-16T16:58:20Z</time>
      </trkpt>
      <trkpt lat="46.09141" lon="6.73291">
        <ele>993</ele>
        <time>2023-08-16T16:58:32Z</time>
      </trkpt>
      <trkpt lat="46.09159" lon="6.73279">
        <ele>996.2</ele>
        <time>2023-08-16T16:58:41Z</time>
      </trkpt>
      <trkpt lat="46.09175" lon="6.73264">
        <ele>999.6</ele>
        <time>2023-08-16T16:58:51Z</time>
      </trkpt>
      <trkpt lat="46.09192" lon="6.73255">
        <ele>1003</ele>
        <time>2023-08-16T16:59:02Z</time>
      </trkpt>
      <trkpt lat="46.09193" lon="6.73254">
        <ele>1003.2</ele>
        <time>2023-08-16T16:59:03Z</time>
      </trkpt>
      <trkpt lat="46.09203" lon="6.73232">
        <ele>1006.5</ele>
        <time>2023-08-16T16:59:17Z</time>
      </trkpt>
      <trkpt lat="46.09207" lon="6.7321">
        <ele>1009.8</ele>
        <time>2023-08-16T16:59:27Z</time>
      </trkpt>
      <trkpt lat="46.09211" lon="6.73181">
        <ele>1013.9</ele>
        <time>2023-08-16T16:59:38Z</time>
      </trkpt>
      <trkpt lat="46.09212" lon="6.73156">
        <ele>1017</ele>
        <time>2023-08-16T16:59:47Z</time>
      </trkpt>
      <trkpt lat="46.0921" lon="6.73128">
        <ele>1020.4</ele>
        <time>2023-08-16T16:59:56Z</time>
      </trkpt>
      <trkpt lat="46.09214" lon="6.73102">
        <ele>1023.5</ele>
        <time>2023-08-16T17:00:04Z</time>
      </trkpt>
      <trkpt lat="46.09217" lon="6.73072">
        <ele>1026.6</ele>
        <time>2023-08-16T17:00:13Z</time>
      </trkpt>
      <trkpt lat="46.09218" lon="6.73046">
        <ele>1029.3</ele>
        <time>2023-08-16T17:00:22Z</time>
      </trkpt>
      <trkpt lat="46.09222" lon="6.7302">
        <ele>1031.9</ele>
        <time>2023-08-16T17:00:30Z</time>
      </trkpt>
      <trkpt lat="46.0923" lon="6.72994">
        <ele>1034.5</ele>
        <time>2023-08-16T17:00:37Z</time>
      </trkpt>
      <trkpt lat="46.0924" lon="6.7297">
        <ele>1038</ele>
        <time>2023-08-16T17:00:45Z</time>
      </trkpt>
      <trkpt lat="46.09246" lon="6.72944">
        <ele>1041.6</ele>
        <time>2023-08-16T17:00:52Z</time>
      </trkpt>
      <trkpt lat="46.09253" lon="6.72919">
        <ele>1044.2</ele>
        <time>2023-08-16T17:00:59Z</time>
      </trkpt>
      <trkpt lat="46.0926" lon="6.72894">
        <ele>1047.7</ele>
        <time>2023-08-16T17:01:08Z</time>
      </trkpt>
      <trkpt lat="46.09263" lon="6.7288">
        <ele>1049.9</ele>
        <time>2023-08-16T17:01:14Z</time>
      </trkpt>
      <trkpt lat="46.09277" lon="6.72857">
        <ele>1053.4</ele>
        <time>2023-08-16T17:01:22Z</time>
      </trkpt>
      <trkpt lat="46.0929" lon="6.72839">
        <ele>1056.6</ele>
        <time>2023-08-16T17:01:30Z</time>
      </trkpt>
      <trkpt lat="46.09305" lon="6.72822">
        <ele>1061.1</ele>
        <time>2023-08-16T17:01:41Z</time>
      </trkpt>
      <trkpt lat="46.09319" lon="6.72803">
        <ele>1065.2</ele>
        <time>2023-08-16T17:01:50Z</time>
      </trkpt>
      <trkpt lat="46.09328" lon="6.7278">
        <ele>1069.4</ele>
        <time>2023-08-16T17:02:03Z</time>
      </trkpt>
      <trkpt lat="46.09333" lon="6.72754">
        <ele>1073.6</ele>
        <time>2023-08-16T17:02:16Z</time>
      </trkpt>
      <trkpt lat="46.0934" lon="6.72729">
        <ele>1078.1</ele>
        <time>2023-08-16T17:02:27Z</time>
      </trkpt>
      <trkpt lat="46.09343" lon="6.72727">
        <ele>1078.7</ele>
        <time>2023-08-16T17:02:28Z</time>
      </trkpt>
      <trkpt lat="46.09347" lon="6.72722">
        <ele>1080</ele>
        <time>2023-08-16T17:02:31Z</time>
      </trkpt>
      <trkpt lat="46.09358" lon="6.72703">
        <ele>1084.3</ele>
        <time>2023-08-16T17:02:40Z</time>
      </trkpt>
      <trkpt lat="46.09374" lon="6.72685">
        <ele>1088.1</ele>
        <time>2023-08-16T17:02:49Z</time>
      </trkpt>
      <trkpt lat="46.0939" lon="6.72671">
        <ele>1091.4</ele>
        <time>2023-08-16T17:02:57Z</time>
      </trkpt>
      <trkpt lat="46.09404" lon="6.72652">
        <ele>1095.3</ele>
        <time>2023-08-16T17:03:07Z</time>
      </trkpt>
      <trkpt lat="46.09418" lon="6.72631">
        <ele>1099.6</ele>
        <time>2023-08-16T17:03:18Z</time>
      </trkpt>
      <trkpt lat="46.09435" lon="6.72621">
        <ele>1104.1</ele>
        <time>2023-08-16T17:03:28Z</time>
      </trkpt>
      <trkpt lat="46.09452" lon="6.72613">
        <ele>1108.3</ele>
        <time>2023-08-16T17:03:40Z</time>
      </trkpt>
      <trkpt lat="46.0947" lon="6.726">
        <ele>1111.3</ele>
        <time>2023-08-16T17:03:47Z</time>
      </trkpt>
      <trkpt lat="46.09487" lon="6.72584">
        <ele>1111.8</ele>
        <time>2023-08-16T17:03:54Z</time>
      </trkpt>
      <trkpt lat="46.09504" lon="6.72568">
        <ele>1110.7</ele>
        <time>2023-08-16T17:03:59Z</time>
      </trkpt>
      <trkpt lat="46.09525" lon="6.72557">
        <ele>1110.7</ele>
        <time>2023-08-16T17:04:04Z</time>
      </trkpt>
      <trkpt lat="46.09544" lon="6.72544">
        <ele>1110.9</ele>
        <time>2023-08-16T17:04:09Z</time>
      </trkpt>
      <trkpt lat="46.09561" lon="6.72538">
        <ele>1111.7</ele>
        <time>2023-08-16T17:04:14Z</time>
      </trkpt>
      <trkpt lat="46.0958" lon="6.72525">
        <ele>1112.7</ele>
        <time>2023-08-16T17:04:21Z</time>
      </trkpt>
      <trkpt lat="46.09598" lon="6.72513">
        <ele>1112.5</ele>
        <time>2023-08-16T17:04:27Z</time>
      </trkpt>
      <trkpt lat="46.09613" lon="6.72498">
        <ele>1111.8</ele>
        <time>2023-08-16T17:04:31Z</time>
      </trkpt>
      <trkpt lat="46.09628" lon="6.72484">
        <ele>1111.3</ele>
        <time>2023-08-16T17:04:37Z</time>
      </trkpt>
      <trkpt lat="46.09631" lon="6.72481">
        <ele>1111.3</ele>
        <time>2023-08-16T17:04:42Z</time>
      </trkpt>
      <trkpt lat="46.0963" lon="6.72483">
        <ele>1111.3</ele>
        <time>2023-08-16T17:04:45Z</time>
      </trkpt>
      <trkpt lat="46.09621" lon="6.72492">
        <ele>1111.6</ele>
        <time>2023-08-16T17:04:53Z</time>
      </trkpt>
      <trkpt lat="46.09616" lon="6.72502">
        <ele>1111.8</ele>
        <time>2023-08-16T17:05:00Z</time>
      </trkpt>
      <trkpt lat="46.09612" lon="6.72506">
        <ele>1112</ele>
        <time>2023-08-16T17:05:02Z</time>
      </trkpt>
      <trkpt lat="46.09598" lon="6.72523">
        <ele>1112.6</ele>
        <time>2023-08-16T17:05:14Z</time>
      </trkpt>
      <trkpt lat="46.09595" lon="6.72525">
        <ele>1112.7</ele>
        <time>2023-08-16T17:05:16Z</time>
      </trkpt>
      <trkpt lat="46.09589" lon="6.72528">
        <ele>1112.7</ele>
        <time>2023-08-16T17:05:20Z</time>
      </trkpt>
      <trkpt lat="46.09584" lon="6.72531">
        <ele>1112.6</ele>
        <time>2023-08-16T17:05:22Z</time>
      </trkpt>
      <trkpt lat="46.09565" lon="6.72542">
        <ele>1111.6</ele>
        <time>2023-08-16T17:05:30Z</time>
      </trkpt>
      <trkpt lat="46.09548" lon="6.72555">
        <ele>1110.8</ele>
        <time>2023-08-16T17:05:37Z</time>
      </trkpt>
      <trkpt lat="46.0953" lon="6.72567">
        <ele>1110.7</ele>
        <time>2023-08-16T17:05:44Z</time>
      </trkpt>
      <trkpt lat="46.09515" lon="6.72583">
        <ele>1110.7</ele>
        <time>2023-08-16T17:05:54Z</time>
      </trkpt>
      <trkpt lat="46.095" lon="6.72596">
        <ele>1111.7</ele>
        <time>2023-08-16T17:06:05Z</time>
      </trkpt>
      <trkpt lat="46.09492" lon="6.72603">
        <ele>1112</ele>
        <time>2023-08-16T17:06:12Z</time>
      </trkpt>
      <trkpt lat="46.09488" lon="6.72603">
        <ele>1112</ele>
        <time>2023-08-16T17:06:16Z</time>
      </trkpt>
      <trkpt lat="46.09471" lon="6.72612">
        <ele>1110.1</ele>
        <time>2023-08-16T17:06:23Z</time>
      </trkpt>
      <trkpt lat="46.09453" lon="6.72622">
        <ele>1106.1</ele>
        <time>2023-08-16T17:06:29Z</time>
      </trkpt>
      <trkpt lat="46.09429" lon="6.72643">
        <ele>1099.2</ele>
        <time>2023-08-16T17:06:36Z</time>
      </trkpt>
      <trkpt lat="46.09413" lon="6.72658">
        <ele>1095.1</ele>
        <time>2023-08-16T17:06:41Z</time>
      </trkpt>
      <trkpt lat="46.09394" lon="6.72675">
        <ele>1090.6</ele>
        <time>2023-08-16T17:06:47Z</time>
      </trkpt>
      <trkpt lat="46.09379" lon="6.72691">
        <ele>1087.4</ele>
        <time>2023-08-16T17:06:54Z</time>
      </trkpt>
      <trkpt lat="46.09366" lon="6.72713">
        <ele>1083.1</ele>
        <time>2023-08-16T17:07:01Z</time>
      </trkpt>
      <trkpt lat="46.09355" lon="6.72736">
        <ele>1078.1</ele>
        <time>2023-08-16T17:07:07Z</time>
      </trkpt>
      <trkpt lat="46.09345" lon="6.72761">
        <ele>1073.3</ele>
        <time>2023-08-16T17:07:14Z</time>
      </trkpt>
      <trkpt lat="46.09336" lon="6.72785">
        <ele>1068.9</ele>
        <time>2023-08-16T17:07:24Z</time>
      </trkpt>
      <trkpt lat="46.09323" lon="6.72806">
        <ele>1065.7</ele>
        <time>2023-08-16T17:07:35Z</time>
      </trkpt>
      <trkpt lat="46.09306" lon="6.72824">
        <ele>1061.1</ele>
        <time>2023-08-16T17:07:44Z</time>
      </trkpt>
      <trkpt lat="46.09293" lon="6.72843">
        <ele>1056.8</ele>
        <time>2023-08-16T17:07:50Z</time>
      </trkpt>
      <trkpt lat="46.09292" lon="6.72843">
        <ele>1056.6</ele>
        <time>2023-08-16T17:07:51Z</time>
      </trkpt>
      <trkpt lat="46.0929" lon="6.72845">
        <ele>1055.9</ele>
        <time>2023-08-16T17:07:53Z</time>
      </trkpt>
      <trkpt lat="46.09285" lon="6.72871">
        <ele>1052.9</ele>
        <time>2023-08-16T17:08:03Z</time>
      </trkpt>
      <trkpt lat="46.09273" lon="6.72894">
        <ele>1049.4</ele>
        <time>2023-08-16T17:08:08Z</time>
      </trkpt>
      <trkpt lat="46.09262" lon="6.72918">
        <ele>1045.3</ele>
        <time>2023-08-16T17:08:14Z</time>
      </trkpt>
      <trkpt lat="46.09255" lon="6.72945">
        <ele>1042.5</ele>
        <time>2023-08-16T17:08:23Z</time>
      </trkpt>
      <trkpt lat="46.09243" lon="6.72968">
        <ele>1039.2</ele>
        <time>2023-08-16T17:08:26Z</time>
      </trkpt>
      <trkpt lat="46.09236" lon="6.72992">
        <ele>1035.7</ele>
        <time>2023-08-16T17:08:30Z</time>
      </trkpt>
      <trkpt lat="46.09232" lon="6.7302">
        <ele>1032.8</ele>
        <time>2023-08-16T17:08:36Z</time>
      </trkpt>
      <trkpt lat="46.09227" lon="6.73047">
        <ele>1030.3</ele>
        <time>2023-08-16T17:08:43Z</time>
      </trkpt>
      <trkpt lat="46.09222" lon="6.73075">
        <ele>1027.4</ele>
        <time>2023-08-16T17:08:49Z</time>
      </trkpt>
      <trkpt lat="46.09221" lon="6.73103">
        <ele>1024.7</ele>
        <time>2023-08-16T17:08:55Z</time>
      </trkpt>
      <trkpt lat="46.09222" lon="6.73131">
        <ele>1021.5</ele>
        <time>2023-08-16T17:09:02Z</time>
      </trkpt>
      <trkpt lat="46.09221" lon="6.73159">
        <ele>1018.1</ele>
        <time>2023-08-16T17:09:08Z</time>
      </trkpt>
      <trkpt lat="46.09218" lon="6.73187">
        <ele>1014.8</ele>
        <time>2023-08-16T17:09:17Z</time>
      </trkpt>
      <trkpt lat="46.09218" lon="6.73216">
        <ele>1011</ele>
        <time>2023-08-16T17:09:26Z</time>
      </trkpt>
      <trkpt lat="46.09211" lon="6.7324">
        <ele>1007.3</ele>
        <time>2023-08-16T17:09:33Z</time>
      </trkpt>
      <trkpt lat="46.09195" lon="6.73258">
        <ele>1003.6</ele>
        <time>2023-08-16T17:09:41Z</time>
      </trkpt>
      <trkpt lat="46.09181" lon="6.73278">
        <ele>1000</ele>
        <time>2023-08-16T17:09:45Z</time>
      </trkpt>
      <trkpt lat="46.09164" lon="6.7329">
        <ele>996.7</ele>
        <time>2023-08-16T17:09:54Z</time>
      </trkpt>
      <trkpt lat="46.09145" lon="6.73295">
        <ele>993.4</ele>
        <time>2023-08-16T17:10:05Z</time>
      </trkpt>
      <trkpt lat="46.0914" lon="6.73294">
        <ele>992.7</ele>
        <time>2023-08-16T17:10:07Z</time>
      </trkpt>
      <trkpt lat="46.09117" lon="6.73281">
        <ele>986.7</ele>
        <time>2023-08-16T17:10:18Z</time>
      </trkpt>
      <trkpt lat="46.09109" lon="6.73281">
        <ele>981.8</ele>
        <time>2023-08-16T17:10:23Z</time>
      </trkpt>
      <trkpt lat="46.09101" lon="6.73291">
        <ele>978.4</ele>
        <time>2023-08-16T17:10:29Z</time>
      </trkpt>
      <trkpt lat="46.09092" lon="6.73315">
        <ele>973</ele>
        <time>2023-08-16T17:10:35Z</time>
      </trkpt>
      <trkpt lat="46.09084" lon="6.7334">
        <ele>967.6</ele>
        <time>2023-08-16T17:10:41Z</time>
      </trkpt>
      <trkpt lat="46.09081" lon="6.73368">
        <ele>961.9</ele>
        <time>2023-08-16T17:10:49Z</time>
      </trkpt>
      <trkpt lat="46.09093" lon="6.73388">
        <ele>956.6</ele>
        <time>2023-08-16T17:11:02Z</time>
      </trkpt>
      <trkpt lat="46.09073" lon="6.7338">
        <ele>950.8</ele>
        <time>2023-08-16T17:11:14Z</time>
      </trkpt>
      <trkpt lat="46.09054" lon="6.73367">
        <ele>946.3</ele>
        <time>2023-08-16T17:11:23Z</time>
      </trkpt>
      <trkpt lat="46.09037" lon="6.73355">
        <ele>941.8</ele>
        <time>2023-08-16T17:11:30Z</time>
      </trkpt>
      <trkpt lat="46.09023" lon="6.73339">
        <ele>937.8</ele>
        <time>2023-08-16T17:11:37Z</time>
      </trkpt>
      <trkpt lat="46.09009" lon="6.73319">
        <ele>933.5</ele>
        <time>2023-08-16T17:11:44Z</time>
      </trkpt>
      <trkpt lat="46.08992" lon="6.7331">
        <ele>930.1</ele>
        <time>2023-08-16T17:11:51Z</time>
      </trkpt>
      <trkpt lat="46.08975" lon="6.733">
        <ele>926.5</ele>
        <time>2023-08-16T17:11:57Z</time>
      </trkpt>
      <trkpt lat="46.08956" lon="6.73286">
        <ele>921.6</ele>
        <time>2023-08-16T17:12:04Z</time>
      </trkpt>
      <trkpt lat="46.08941" lon="6.73271">
        <ele>917.8</ele>
        <time>2023-08-16T17:12:12Z</time>
      </trkpt>
      <trkpt lat="46.08927" lon="6.73253">
        <ele>913.6</ele>
        <time>2023-08-16T17:12:19Z</time>
      </trkpt>
      <trkpt lat="46.08911" lon="6.73236">
        <ele>909</ele>
        <time>2023-08-16T17:12:28Z</time>
      </trkpt>
      <trkpt lat="46.08896" lon="6.73217">
        <ele>904.2</ele>
        <time>2023-08-16T17:12:37Z</time>
      </trkpt>
      <trkpt lat="46.08882" lon="6.73199">
        <ele>898.7</ele>
        <time>2023-08-16T17:12:49Z</time>
      </trkpt>
      <trkpt lat="46.08876" lon="6.73198">
        <ele>896.7</ele>
        <time>2023-08-16T17:12:54Z</time>
      </trkpt>
      <trkpt lat="46.08868" lon="6.73224">
        <ele>891.7</ele>
        <time>2023-08-16T17:13:08Z</time>
      </trkpt>
      <trkpt lat="46.0888" lon="6.73246">
        <ele>887.3</ele>
        <time>2023-08-16T17:13:24Z</time>
      </trkpt>
      <trkpt lat="46.08881" lon="6.73253">
        <ele>886.1</ele>
        <time>2023-08-16T17:13:29Z</time>
      </trkpt>
      <trkpt lat="46.08882" lon="6.73257">
        <ele>885.5</ele>
        <time>2023-08-16T17:13:31Z</time>
      </trkpt>
      <trkpt lat="46.08885" lon="6.73276">
        <ele>882.8</ele>
        <time>2023-08-16T17:13:50Z</time>
      </trkpt>
      <trkpt lat="46.08889" lon="6.73281">
        <ele>881.7</ele>
        <time>2023-08-16T17:13:54Z</time>
      </trkpt>
      <trkpt lat="46.08885" lon="6.73301">
        <ele>879.1</ele>
        <time>2023-08-16T17:14:06Z</time>
      </trkpt>
      <trkpt lat="46.08877" lon="6.73276">
        <ele>882.9</ele>
        <time>2023-08-16T17:14:19Z</time>
      </trkpt>
      <trkpt lat="46.08866" lon="6.73256">
        <ele>886.5</ele>
        <time>2023-08-16T17:14:30Z</time>
      </trkpt>
      <trkpt lat="46.08858" lon="6.73232">
        <ele>890.6</ele>
        <time>2023-08-16T17:14:40Z</time>
      </trkpt>
      <trkpt lat="46.08864" lon="6.73202">
        <ele>895.7</ele>
        <time>2023-08-16T17:14:48Z</time>
      </trkpt>
      <trkpt lat="46.08864" lon="6.73194">
        <ele>897.3</ele>
        <time>2023-08-16T17:14:54Z</time>
      </trkpt>
      <trkpt lat="46.08866" lon="6.73197">
        <ele>897.9</ele>
        <time>2023-08-16T17:14:57Z</time>
      </trkpt>
      <trkpt lat="46.08873" lon="6.73205">
        <ele>900.6</ele>
        <time>2023-08-16T17:15:05Z</time>
      </trkpt>
      <trkpt lat="46.08888" lon="6.73218">
        <ele>905.4</ele>
        <time>2023-08-16T17:15:18Z</time>
      </trkpt>
      <trkpt lat="46.08902" lon="6.73233">
        <ele>909.4</ele>
        <time>2023-08-16T17:15:29Z</time>
      </trkpt>
      <trkpt lat="46.08919" lon="6.73241">
        <ele>913.4</ele>
        <time>2023-08-16T17:15:37Z</time>
      </trkpt>
      <trkpt lat="46.08927" lon="6.73247">
        <ele>915.4</ele>
        <time>2023-08-16T17:15:43Z</time>
      </trkpt>
      <trkpt lat="46.08939" lon="6.73271">
        <ele>919.5</ele>
        <time>2023-08-16T17:15:56Z</time>
      </trkpt>
      <trkpt lat="46.08956" lon="6.73285">
        <ele>923.6</ele>
        <time>2023-08-16T17:16:04Z</time>
      </trkpt>
      <trkpt lat="46.08974" lon="6.73294">
        <ele>927.8</ele>
        <time>2023-08-16T17:16:15Z</time>
      </trkpt>
      <trkpt lat="46.08991" lon="6.73306">
        <ele>931.2</ele>
        <time>2023-08-16T17:16:26Z</time>
      </trkpt>
      <trkpt lat="46.09008" lon="6.73317">
        <ele>934.8</ele>
        <time>2023-08-16T17:16:35Z</time>
      </trkpt>
      <trkpt lat="46.09026" lon="6.73325">
        <ele>938.9</ele>
        <time>2023-08-16T17:16:46Z</time>
      </trkpt>
      <trkpt lat="46.09043" lon="6.73336">
        <ele>942.9</ele>
        <time>2023-08-16T17:16:57Z</time>
      </trkpt>
      <trkpt lat="46.09057" lon="6.73355">
        <ele>947.1</ele>
        <time>2023-08-16T17:17:08Z</time>
      </trkpt>
      <trkpt lat="46.09072" lon="6.7337">
        <ele>950.9</ele>
        <time>2023-08-16T17:17:15Z</time>
      </trkpt>
      <trkpt lat="46.09085" lon="6.73388">
        <ele>955.9</ele>
        <time>2023-08-16T17:17:22Z</time>
      </trkpt>
      <trkpt lat="46.09088" lon="6.73382">
        <ele>957.3</ele>
        <time>2023-08-16T17:17:28Z</time>
      </trkpt>
      <trkpt lat="46.09078" lon="6.73364">
        <ele>961.8</ele>
        <time>2023-08-16T17:17:42Z</time>
      </trkpt>
      <trkpt lat="46.09084" lon="6.73339">
        <ele>966.8</ele>
        <time>2023-08-16T17:17:52Z</time>
      </trkpt>
      <trkpt lat="46.09087" lon="6.73322">
        <ele>970.3</ele>
        <time>2023-08-16T17:18:01Z</time>
      </trkpt>
      <trkpt lat="46.09085" lon="6.73307">
        <ele>973</ele>
        <time>2023-08-16T17:18:07Z</time>
      </trkpt>
      <trkpt lat="46.09094" lon="6.73282">
        <ele>978.3</ele>
        <time>2023-08-16T17:18:17Z</time>
      </trkpt>
      <trkpt lat="46.09105" lon="6.7328">
        <ele>981</ele>
        <time>2023-08-16T17:18:28Z</time>
      </trkpt>
      <trkpt lat="46.0912" lon="6.73292">
        <ele>987.7</ele>
        <time>2023-08-16T17:18:41Z</time>
      </trkpt>
      <trkpt lat="46.09138" lon="6.73287">
        <ele>992.7</ele>
        <time>2023-08-16T17:18:54Z</time>
      </trkpt>
      <trkpt lat="46.09155" lon="6.73274">
        <ele>995.9</ele>
        <time>2023-08-16T17:19:03Z</time>
      </trkpt>
      <trkpt lat="46.09172" lon="6.73263">
        <ele>999.1</ele>
        <time>2023-08-16T17:19:14Z</time>
      </trkpt>
      <trkpt lat="46.09189" lon="6.73253">
        <ele>1002.5</ele>
        <time>2023-08-16T17:19:23Z</time>
      </trkpt>
      <trkpt lat="46.092" lon="6.73233">
        <ele>1005.7</ele>
        <time>2023-08-16T17:19:37Z</time>
      </trkpt>
      <trkpt lat="46.0921" lon="6.73211">
        <ele>1009.4</ele>
        <time>2023-08-16T17:19:50Z</time>
      </trkpt>
      <trkpt lat="46.09214" lon="6.73183">
        <ele>1013.5</ele>
        <time>2023-08-16T17:20:01Z</time>
      </trkpt>
      <trkpt lat="46.09214" lon="6.73155">
        <ele>1017</ele>
        <time>2023-08-16T17:20:10Z</time>
      </trkpt>
      <trkpt lat="46.09212" lon="6.73128">
        <ele>1020.2</ele>
        <time>2023-08-16T17:20:19Z</time>
      </trkpt>
      <trkpt lat="46.09215" lon="6.73098">
        <ele>1023.8</ele>
        <time>2023-08-16T17:20:27Z</time>
      </trkpt>
      <trkpt lat="46.09222" lon="6.73072">
        <ele>1026.7</ele>
        <time>2023-08-16T17:20:35Z</time>
      </trkpt>
      <trkpt lat="46.09224" lon="6.73045">
        <ele>1029.4</ele>
        <time>2023-08-16T17:20:43Z</time>
      </trkpt>
      <trkpt lat="46.0923" lon="6.7302">
        <ele>1031.9</ele>
        <time>2023-08-16T17:20:51Z</time>
      </trkpt>
      <trkpt lat="46.09241" lon="6.72998">
        <ele>1034.4</ele>
        <time>2023-08-16T17:20:58Z</time>
      </trkpt>
      <trkpt lat="46.09249" lon="6.72974">
        <ele>1037.8</ele>
        <time>2023-08-16T17:21:07Z</time>
      </trkpt>
      <trkpt lat="46.09255" lon="6.72948">
        <ele>1041.3</ele>
        <time>2023-08-16T17:21:17Z</time>
      </trkpt>
      <trkpt lat="46.09259" lon="6.72919">
        <ele>1044.2</ele>
        <time>2023-08-16T17:21:25Z</time>
      </trkpt>
      <trkpt lat="46.09262" lon="6.72893">
        <ele>1047.8</ele>
        <time>2023-08-16T17:21:35Z</time>
      </trkpt>
      <trkpt lat="46.09261" lon="6.72888">
        <ele>1048.4</ele>
        <time>2023-08-16T17:21:37Z</time>
      </trkpt>
      <trkpt lat="46.09264" lon="6.7288">
        <ele>1050</ele>
        <time>2023-08-16T17:21:41Z</time>
      </trkpt>
      <trkpt lat="46.0927" lon="6.72871">
        <ele>1051.6</ele>
        <time>2023-08-16T17:21:46Z</time>
      </trkpt>
      <trkpt lat="46.09282" lon="6.72851">
        <ele>1054.2</ele>
        <time>2023-08-16T17:21:53Z</time>
      </trkpt>
      <trkpt lat="46.09296" lon="6.72833">
        <ele>1058.2</ele>
        <time>2023-08-16T17:22:02Z</time>
      </trkpt>
      <trkpt lat="46.09305" lon="6.72819">
        <ele>1061.3</ele>
        <time>2023-08-16T17:22:09Z</time>
      </trkpt>
      <trkpt lat="46.09319" lon="6.72801">
        <ele>1065.4</ele>
        <time>2023-08-16T17:22:18Z</time>
      </trkpt>
      <trkpt lat="46.09323" lon="6.72793">
        <ele>1067.1</ele>
        <time>2023-08-16T17:22:22Z</time>
      </trkpt>
      <trkpt lat="46.09332" lon="6.72769">
        <ele>1071.2</ele>
        <time>2023-08-16T17:22:33Z</time>
      </trkpt>
      <trkpt lat="46.09334" lon="6.72759">
        <ele>1072.9</ele>
        <time>2023-08-16T17:22:39Z</time>
      </trkpt>
      <trkpt lat="46.0934" lon="6.72733">
        <ele>1077.4</ele>
        <time>2023-08-16T17:22:48Z</time>
      </trkpt>
      <trkpt lat="46.09348" lon="6.72708">
        <ele>1082</ele>
        <time>2023-08-16T17:22:59Z</time>
      </trkpt>
      <trkpt lat="46.09356" lon="6.72692">
        <ele>1085.2</ele>
        <time>2023-08-16T17:23:08Z</time>
      </trkpt>
      <trkpt lat="46.09372" lon="6.72676">
        <ele>1088.7</ele>
        <time>2023-08-16T17:23:18Z</time>
      </trkpt>
      <trkpt lat="46.09389" lon="6.72662">
        <ele>1092.1</ele>
        <time>2023-08-16T17:23:26Z</time>
      </trkpt>
      <trkpt lat="46.09405" lon="6.7265">
        <ele>1095.7</ele>
        <time>2023-08-16T17:23:35Z</time>
      </trkpt>
      <trkpt lat="46.09422" lon="6.72639">
        <ele>1099.8</ele>
        <time>2023-08-16T17:23:43Z</time>
      </trkpt>
      <trkpt lat="46.0944" lon="6.72631">
        <ele>1104.4</ele>
        <time>2023-08-16T17:23:54Z</time>
      </trkpt>
      <trkpt lat="46.09459" lon="6.72623">
        <ele>1108.8</ele>
        <time>2023-08-16T17:24:04Z</time>
      </trkpt>
      <trkpt lat="46.09463" lon="6.72617">
        <ele>1109.9</ele>
        <time>2023-08-16T17:24:06Z</time>
      </trkpt>
      <trkpt lat="46.09479" lon="6.72603">
        <ele>1111.9</ele>
        <time>2023-08-16T17:24:14Z</time>
      </trkpt>
      <trkpt lat="46.09484" lon="6.72601">
        <ele>1112</ele>
        <time>2023-08-16T17:24:21Z</time>
      </trkpt>
      <trkpt lat="46.09484" lon="6.72604">
        <ele>1112</ele>
        <time>2023-08-16T17:24:24Z</time>
      </trkpt>
      <trkpt lat="46.09481" lon="6.72607">
        <ele>1111.8</ele>
        <time>2023-08-16T17:24:29Z</time>
      </trkpt>
      <trkpt lat="46.09479" lon="6.7261">
        <ele>1111.6</ele>
        <time>2023-08-16T17:24:31Z</time>
      </trkpt>
      <trkpt lat="46.09471" lon="6.72621">
        <ele>1110.3</ele>
        <time>2023-08-16T17:24:39Z</time>
      </trkpt>
      <trkpt lat="46.09461" lon="6.72627">
        <ele>1108.5</ele>
        <time>2023-08-16T17:24:47Z</time>
      </trkpt>
      <trkpt lat="46.09441" lon="6.72635">
        <ele>1103.5</ele>
        <time>2023-08-16T17:25:00Z</time>
      </trkpt>
      <trkpt lat="46.09424" lon="6.72641">
        <ele>1099.1</ele>
        <time>2023-08-16T17:25:11Z</time>
      </trkpt>
      <trkpt lat="46.09407" lon="6.72655">
        <ele>1094.8</ele>
        <time>2023-08-16T17:25:19Z</time>
      </trkpt>
      <trkpt lat="46.09391" lon="6.72668">
        <ele>1091.1</ele>
        <time>2023-08-16T17:25:29Z</time>
      </trkpt>
      <trkpt lat="46.09376" lon="6.72682">
        <ele>1088</ele>
        <time>2023-08-16T17:25:39Z</time>
      </trkpt>
      <trkpt lat="46.09363" lon="6.72703">
        <ele>1084.1</ele>
        <time>2023-08-16T17:25:47Z</time>
      </trkpt>
      <trkpt lat="46.09351" lon="6.72725">
        <ele>1079.4</ele>
        <time>2023-08-16T17:25:53Z</time>
      </trkpt>
      <trkpt lat="46.09348" lon="6.72751">
        <ele>1074.8</ele>
        <time>2023-08-16T17:26:00Z</time>
      </trkpt>
      <trkpt lat="46.09343" lon="6.72778">
        <ele>1070.4</ele>
        <time>2023-08-16T17:26:07Z</time>
      </trkpt>
      <trkpt lat="46.09332" lon="6.72801">
        <ele>1067.8</ele>
        <time>2023-08-16T17:26:16Z</time>
      </trkpt>
      <trkpt lat="46.09324" lon="6.72813">
        <ele>1064.9</ele>
        <time>2023-08-16T17:26:25Z</time>
      </trkpt>
      <trkpt lat="46.09322" lon="6.72815">
        <ele>1064.4</ele>
        <time>2023-08-16T17:26:27Z</time>
      </trkpt>
      <trkpt lat="46.09316" lon="6.72821">
        <ele>1062.8</ele>
        <time>2023-08-16T17:26:31Z</time>
      </trkpt>
      <trkpt lat="46.09312" lon="6.72823">
        <ele>1061.8</ele>
        <time>2023-08-16T17:26:34Z</time>
      </trkpt>
      <trkpt lat="46.09305" lon="6.72826">
        <ele>1060.1</ele>
        <time>2023-08-16T17:26:38Z</time>
      </trkpt>
      <trkpt lat="46.0929" lon="6.72846">
        <ele>1055.5</ele>
        <time>2023-08-16T17:26:45Z</time>
      </trkpt>
      <trkpt lat="46.09276" lon="6.72865">
        <ele>1052.6</ele>
        <time>2023-08-16T17:26:56Z</time>
      </trkpt>
      <trkpt lat="46.09265" lon="6.72891">
        <ele>1048.5</ele>
        <time>2023-08-16T17:27:06Z</time>
      </trkpt>
      <trkpt lat="46.09253" lon="6.72914">
        <ele>1044.6</ele>
        <time>2023-08-16T17:27:11Z</time>
      </trkpt>
      <trkpt lat="46.09244" lon="6.72941">
        <ele>1041.8</ele>
        <time>2023-08-16T17:27:20Z</time>
      </trkpt>
      <trkpt lat="46.09237" lon="6.7296">
        <ele>1039.2</ele>
        <time>2023-08-16T17:27:29Z</time>
      </trkpt>
      <trkpt lat="46.09233" lon="6.72985">
        <ele>1035.7</ele>
        <time>2023-08-16T17:27:38Z</time>
      </trkpt>
      <trkpt lat="46.09229" lon="6.73011">
        <ele>1032.9</ele>
        <time>2023-08-16T17:27:45Z</time>
      </trkpt>
      <trkpt lat="46.09223" lon="6.73036">
        <ele>1030.6</ele>
        <time>2023-08-16T17:27:51Z</time>
      </trkpt>
      <trkpt lat="46.09224" lon="6.73064">
        <ele>1027.8</ele>
        <time>2023-08-16T17:28:00Z</time>
      </trkpt>
      <trkpt lat="46.09225" lon="6.73092">
        <ele>1025</ele>
        <time>2023-08-16T17:28:09Z</time>
      </trkpt>
      <trkpt lat="46.09224" lon="6.73104">
        <ele>1023.7</ele>
        <time>2023-08-16T17:28:16Z</time>
      </trkpt>
      <trkpt lat="46.09219" lon="6.73131">
        <ele>1020.5</ele>
        <time>2023-08-16T17:28:26Z</time>
      </trkpt>
      <trkpt lat="46.09219" lon="6.73145">
        <ele>1018.7</ele>
        <time>2023-08-16T17:28:32Z</time>
      </trkpt>
      <trkpt lat="46.09215" lon="6.73171">
        <ele>1015.6</ele>
        <time>2023-08-16T17:28:41Z</time>
      </trkpt>
      <trkpt lat="46.09217" lon="6.7319">
        <ele>1013.2</ele>
        <time>2023-08-16T17:28:51Z</time>
      </trkpt>
      <trkpt lat="46.09216" lon="6.73194">
        <ele>1012.6</ele>
        <time>2023-08-16T17:28:54Z</time>
      </trkpt>
      <trkpt lat="46.09217" lon="6.73197">
        <ele>1012.2</ele>
        <time>2023-08-16T17:28:56Z</time>
      </trkpt>
      <trkpt lat="46.09206" lon="6.73226">
        <ele>1007.6</ele>
        <time>2023-08-16T17:29:03Z</time>
      </trkpt>
      <trkpt lat="46.09194" lon="6.73246">
        <ele>1004.1</ele>
        <time>2023-08-16T17:29:11Z</time>
      </trkpt>
      <trkpt lat="46.0918" lon="6.73265">
        <ele>1000.7</ele>
        <time>2023-08-16T17:29:22Z</time>
      </trkpt>
      <trkpt lat="46.09165" lon="6.73283">
        <ele>997.2</ele>
        <time>2023-08-16T17:29:31Z</time>
      </trkpt>
      <trkpt lat="46.09147" lon="6.73286">
        <ele>994</ele>
        <time>2023-08-16T17:29:41Z</time>
      </trkpt>
      <trkpt lat="46.09143" lon="6.73286">
        <ele>993.5</ele>
        <time>2023-08-16T17:29:45Z</time>
      </trkpt>
      <trkpt lat="46.09124" lon="6.73284">
        <ele>988.7</ele>
        <time>2023-08-16T17:29:54Z</time>
      </trkpt>
      <trkpt lat="46.09112" lon="6.73278">
        <ele>983.2</ele>
        <time>2023-08-16T17:30:03Z</time>
      </trkpt>
      <trkpt lat="46.09108" lon="6.73279">
        <ele>981.2</ele>
        <time>2023-08-16T17:30:07Z</time>
      </trkpt>
      <trkpt lat="46.09104" lon="6.73286">
        <ele>978.4</ele>
        <time>2023-08-16T17:30:13Z</time>
      </trkpt>
      <trkpt lat="46.09094" lon="6.7331">
        <ele>973.3</ele>
        <time>2023-08-16T17:30:22Z</time>
      </trkpt>
      <trkpt lat="46.09085" lon="6.73335">
        <ele>968.3</ele>
        <time>2023-08-16T17:30:28Z</time>
      </trkpt>
      <trkpt lat="46.09077" lon="6.73361">
        <ele>963.3</ele>
        <time>2023-08-16T17:30:36Z</time>
      </trkpt>
      <trkpt lat="46.09085" lon="6.73387">
        <ele>958</ele>
        <time>2023-08-16T17:30:47Z</time>
      </trkpt>
      <trkpt lat="46.09089" lon="6.73391">
        <ele>956.4</ele>
        <time>2023-08-16T17:30:51Z</time>
      </trkpt>
      <trkpt lat="46.09077" lon="6.73371">
        <ele>951.5</ele>
        <time>2023-08-16T17:31:07Z</time>
      </trkpt>
      <trkpt lat="46.09056" lon="6.73356">
        <ele>946.8</ele>
        <time>2023-08-16T17:31:22Z</time>
      </trkpt>
      <trkpt lat="46.09039" lon="6.73348">
        <ele>943</ele>
        <time>2023-08-16T17:31:31Z</time>
      </trkpt>
      <trkpt lat="46.09029" lon="6.73325">
        <ele>939.1</ele>
        <time>2023-08-16T17:31:41Z</time>
      </trkpt>
      <trkpt lat="46.0901" lon="6.73313">
        <ele>934.8</ele>
        <time>2023-08-16T17:31:49Z</time>
      </trkpt>
      <trkpt lat="46.08989" lon="6.73306">
        <ele>931</ele>
        <time>2023-08-16T17:31:57Z</time>
      </trkpt>
      <trkpt lat="46.0897" lon="6.73296">
        <ele>927.5</ele>
        <time>2023-08-16T17:32:06Z</time>
      </trkpt>
      <trkpt lat="46.08951" lon="6.7329">
        <ele>923.3</ele>
        <time>2023-08-16T17:32:14Z</time>
      </trkpt>
      <trkpt lat="46.08941" lon="6.73268">
        <ele>919.9</ele>
        <time>2023-08-16T17:32:24Z</time>
      </trkpt>
      <trkpt lat="46.08929" lon="6.73247">
        <ele>916.2</ele>
        <time>2023-08-16T17:32:33Z</time>
      </trkpt>
      <trkpt lat="46.08911" lon="6.73233">
        <ele>911.9</ele>
        <time>2023-08-16T17:32:41Z</time>
      </trkpt>
      <trkpt lat="46.08894" lon="6.73219">
        <ele>907.8</ele>
        <time>2023-08-16T17:32:49Z</time>
      </trkpt>
      <trkpt lat="46.08876" lon="6.73206">
        <ele>902.9</ele>
        <time>2023-08-16T17:32:59Z</time>
      </trkpt>
      <trkpt lat="46.0886" lon="6.73191">
        <ele>897.9</ele>
        <time>2023-08-16T17:33:09Z</time>
      </trkpt>
      <trkpt lat="46.0886" lon="6.73193">
        <ele>897.6</ele>
        <time>2023-08-16T17:33:11Z</time>
      </trkpt>
      <trkpt lat="46.08856" lon="6.73219">
        <ele>893</ele>
        <time>2023-08-16T17:33:23Z</time>
      </trkpt>
      <trkpt lat="46.08874" lon="6.73233">
        <ele>888.6</ele>
        <time>2023-08-16T17:33:33Z</time>
      </trkpt>
      <trkpt lat="46.08882" lon="6.7326">
        <ele>884.5</ele>
        <time>2023-08-16T17:33:42Z</time>
      </trkpt>
      <trkpt lat="46.0888" lon="6.73287">
        <ele>881</ele>
        <time>2023-08-16T17:33:52Z</time>
      </trkpt>
      <trkpt lat="46.0888" lon="6.73289">
        <ele>880.7</ele>
        <time>2023-08-16T17:33:53Z</time>
      </trkpt>
      <trkpt lat="46.08891" lon="6.73313">
        <ele>876.5</ele>
        <time>2023-08-16T17:34:02Z</time>
      </trkpt>
      <trkpt lat="46.08901" lon="6.73337">
        <ele>873.7</ele>
        <time>2023-08-16T17:34:11Z</time>
      </trkpt>
      <trkpt lat="46.08904" lon="6.73344">
        <ele>872.7</ele>
        <time>2023-08-16T17:34:16Z</time>
      </trkpt>
      <trkpt lat="46.08902" lon="6.73343">
        <ele>872.4</ele>
        <time>2023-08-16T17:34:20Z</time>
      </trkpt>
      <trkpt lat="46.08899" lon="6.73344">
        <ele>871.8</ele>
        <time>2023-08-16T17:34:22Z</time>
      </trkpt>
      <trkpt lat="46.08879" lon="6.7334">
        <ele>867.6</ele>
        <time>2023-08-16T17:34:32Z</time>
      </trkpt>
      <trkpt lat="46.08863" lon="6.73328">
        <ele>864.1</ele>
        <time>2023-08-16T17:34:41Z</time>
      </trkpt>
      <trkpt lat="46.08845" lon="6.73316">
        <ele>860.6</ele>
        <time>2023-08-16T17:34:49Z</time>
      </trkpt>
      <trkpt lat="46.08828" lon="6.73298">
        <ele>857.3</ele>
        <time>2023-08-16T17:34:54Z</time>
      </trkpt>
      <trkpt lat="46.08812" lon="6.73279">
        <ele>855.3</ele>
        <time>2023-08-16T17:35:00Z</time>
      </trkpt>
      <trkpt lat="46.08797" lon="6.73261">
        <ele>854</ele>
        <time>2023-08-16T17:35:07Z</time>
      </trkpt>
      <trkpt lat="46.08782" lon="6.73246">
        <ele>852.8</ele>
        <time>2023-08-16T17:35:14Z</time>
      </trkpt>
      <trkpt lat="46.08771" lon="6.73222">
        <ele>850.8</ele>
        <time>2023-08-16T17:35:21Z</time>
      </trkpt>
      <trkpt lat="46.08761" lon="6.73193">
        <ele>847.8</ele>
        <time>2023-08-16T17:35:28Z</time>
      </trkpt>
      <trkpt lat="46.0875" lon="6.73171">
        <ele>845.9</ele>
        <time>2023-08-16T17:35:33Z</time>
      </trkpt>
      <trkpt lat="46.08742" lon="6.73145">
        <ele>844.7</ele>
        <time>2023-08-16T17:35:40Z</time>
      </trkpt>
      <trkpt lat="46.08741" lon="6.73118">
        <ele>843</ele>
        <time>2023-08-16T17:35:46Z</time>
      </trkpt>
      <trkpt lat="46.08743" lon="6.73089">
        <ele>840.2</ele>
        <time>2023-08-16T17:35:54Z</time>
      </trkpt>
      <trkpt lat="46.08738" lon="6.7308">
        <ele>839</ele>
        <time>2023-08-16T17:35:59Z</time>
      </trkpt>
      <trkpt lat="46.08728" lon="6.73102">
        <ele>832.7</ele>
        <time>2023-08-16T17:36:11Z</time>
      </trkpt>
      <trkpt lat="46.08719" lon="6.73126">
        <ele>829.6</ele>
        <time>2023-08-16T17:36:22Z</time>
      </trkpt>
      <trkpt lat="46.08717" lon="6.73154">
        <ele>827.7</ele>
        <time>2023-08-16T17:36:31Z</time>
      </trkpt>
      <trkpt lat="46.08716" lon="6.73182">
        <ele>826.5</ele>
        <time>2023-08-16T17:36:42Z</time>
      </trkpt>
      <trkpt lat="46.08715" lon="6.73208">
        <ele>822.3</ele>
        <time>2023-08-16T17:36:55Z</time>
      </trkpt>
      <trkpt lat="46.0871" lon="6.73206">
        <ele>820.4</ele>
        <time>2023-08-16T17:37:08Z</time>
      </trkpt>
      <trkpt lat="46.08708" lon="6.73207">
        <ele>819.7</ele>
        <time>2023-08-16T17:37:10Z</time>
      </trkpt>
      <trkpt lat="46.08692" lon="6.7322">
        <ele>813.6</ele>
        <time>2023-08-16T17:37:22Z</time>
      </trkpt>
      <trkpt lat="46.0868" lon="6.73223">
        <ele>809.8</ele>
        <time>2023-08-16T17:37:29Z</time>
      </trkpt>
      <trkpt lat="46.08662" lon="6.73233">
        <ele>804.2</ele>
        <time>2023-08-16T17:37:38Z</time>
      </trkpt>
      <trkpt lat="46.08647" lon="6.73253">
        <ele>799.4</ele>
        <time>2023-08-16T17:37:45Z</time>
      </trkpt>
      <trkpt lat="46.0864" lon="6.73273">
        <ele>796.4</ele>
        <time>2023-08-16T17:37:51Z</time>
      </trkpt>
      <trkpt lat="46.08624" lon="6.73284">
        <ele>792.2</ele>
        <time>2023-08-16T17:38:00Z</time>
      </trkpt>
      <trkpt lat="46.08606" lon="6.73285">
        <ele>787.3</ele>
        <time>2023-08-16T17:38:10Z</time>
      </trkpt>
      <trkpt lat="46.08591" lon="6.73269">
        <ele>782</ele>
        <time>2023-08-16T17:38:23Z</time>
      </trkpt>
      <trkpt lat="46.08588" lon="6.73271">
        <ele>781.1</ele>
        <time>2023-08-16T17:38:25Z</time>
      </trkpt>
      <trkpt lat="46.0858" lon="6.73295">
        <ele>775.9</ele>
        <time>2023-08-16T17:38:35Z</time>
      </trkpt>
      <trkpt lat="46.08578" lon="6.7332">
        <ele>771.1</ele>
        <time>2023-08-16T17:38:45Z</time>
      </trkpt>
      <trkpt lat="46.08574" lon="6.73329">
        <ele>766.6</ele>
        <time>2023-08-16T17:38:49Z</time>
      </trkpt>
      <trkpt lat="46.0856" lon="6.73313">
        <ele>763.8</ele>
        <time>2023-08-16T17:38:59Z</time>
      </trkpt>
      <trkpt lat="46.08547" lon="6.73294">
        <ele>761.4</ele>
        <time>2023-08-16T17:39:08Z</time>
      </trkpt>
      <trkpt lat="46.08546" lon="6.73293">
        <ele>758.9</ele>
        <time>2023-08-16T17:39:09Z</time>
      </trkpt>
      <trkpt lat="46.08547" lon="6.7332">
        <ele>757.3</ele>
        <time>2023-08-16T17:39:18Z</time>
      </trkpt>
      <trkpt lat="46.08552" lon="6.73344">
        <ele>755.8</ele>
        <time>2023-08-16T17:39:25Z</time>
      </trkpt>
      <trkpt lat="46.08552" lon="6.73372">
        <ele>754.2</ele>
        <time>2023-08-16T17:39:33Z</time>
      </trkpt>
      <trkpt lat="46.08547" lon="6.73399">
        <ele>752.6</ele>
        <time>2023-08-16T17:39:41Z</time>
      </trkpt>
      <trkpt lat="46.08534" lon="6.73421">
        <ele>750.8</ele>
        <time>2023-08-16T17:39:49Z</time>
      </trkpt>
      <trkpt lat="46.08516" lon="6.73417">
        <ele>749.2</ele>
        <time>2023-08-16T17:39:56Z</time>
      </trkpt>
      <trkpt lat="46.08498" lon="6.73415">
        <ele>746.9</ele>
        <time>2023-08-16T17:40:04Z</time>
      </trkpt>
      <trkpt lat="46.08481" lon="6.73425">
        <ele>744.1</ele>
        <time>2023-08-16T17:40:13Z</time>
      </trkpt>
      <trkpt lat="46.08464" lon="6.73414">
        <ele>741.1</ele>
        <time>2023-08-16T17:40:21Z</time>
      </trkpt>
      <trkpt lat="46.0845" lon="6.73392">
        <ele>737.5</ele>
        <time>2023-08-16T17:40:28Z</time>
      </trkpt>
      <trkpt lat="46.08442" lon="6.73389">
        <ele>737</ele>
        <time>2023-08-16T17:40:31Z</time>
      </trkpt>
      <trkpt lat="46.08424" lon="6.73398">
        <ele>733.4</ele>
        <time>2023-08-16T17:40:39Z</time>
      </trkpt>
      <trkpt lat="46.08405" lon="6.73394">
        <ele>728.5</ele>
        <time>2023-08-16T17:40:46Z</time>
      </trkpt>
      <trkpt lat="46.08388" lon="6.73383">
        <ele>727</ele>
        <time>2023-08-16T17:40:52Z</time>
      </trkpt>
      <trkpt lat="46.08376" lon="6.73362">
        <ele>726.3</ele>
        <time>2023-08-16T17:40:58Z</time>
      </trkpt>
      <trkpt lat="46.08365" lon="6.7334">
        <ele>725.7</ele>
        <time>2023-08-16T17:41:04Z</time>
      </trkpt>
      <trkpt lat="46.08357" lon="6.73315">
        <ele>724.9</ele>
        <time>2023-08-16T17:41:11Z</time>
      </trkpt>
      <trkpt lat="46.0835" lon="6.73288">
        <ele>723.9</ele>
        <time>2023-08-16T17:41:19Z</time>
      </trkpt>
      <trkpt lat="46.08343" lon="6.73263">
        <ele>722.9</ele>
        <time>2023-08-16T17:41:26Z</time>
      </trkpt>
      <trkpt lat="46.08338" lon="6.73236">
        <ele>721.7</ele>
        <time>2023-08-16T17:41:35Z</time>
      </trkpt>
      <trkpt lat="46.08337" lon="6.73209">
        <ele>720.6</ele>
        <time>2023-08-16T17:41:43Z</time>
      </trkpt>
      <trkpt lat="46.08338" lon="6.7318">
        <ele>719.4</ele>
        <time>2023-08-16T17:41:51Z</time>
      </trkpt>
      <trkpt lat="46.08338" lon="6.73152">
        <ele>718.5</ele>
        <time>2023-08-16T17:41:59Z</time>
      </trkpt>
      <trkpt lat="46.08336" lon="6.73123">
        <ele>717.9</ele>
        <time>2023-08-16T17:42:07Z</time>
      </trkpt>
      <trkpt lat="46.08333" lon="6.73096">
        <ele>716.9</ele>
        <time>2023-08-16T17:42:16Z</time>
      </trkpt>
      <trkpt lat="46.08338" lon="6.7307">
        <ele>715.5</ele>
        <time>2023-08-16T17:42:26Z</time>
      </trkpt>
      <trkpt lat="46.08338" lon="6.73043">
        <ele>713.9</ele>
        <time>2023-08-16T17:42:34Z</time>
      </trkpt>
      <trkpt lat="46.0834" lon="6.73014">
        <ele>712.7</ele>
        <time>2023-08-16T17:42:42Z</time>
      </trkpt>
      <trkpt lat="46.08344" lon="6.72987">
        <ele>712</ele>
        <time>2023-08-16T17:42:49Z</time>
      </trkpt>
      <trkpt lat="46.08348" lon="6.72961">
        <ele>711.4</ele>
        <time>2023-08-16T17:42:56Z</time>
      </trkpt>
      <trkpt lat="46.08351" lon="6.72936">
        <ele>711</ele>
        <time>2023-08-16T17:43:03Z</time>
      </trkpt>
      <trkpt lat="46.08359" lon="6.7291">
        <ele>710.9</ele>
        <time>2023-08-16T17:43:11Z</time>
      </trkpt>
      <trkpt lat="46.08371" lon="6.72888">
        <ele>710.6</ele>
        <time>2023-08-16T17:43:20Z</time>
      </trkpt>
      <trkpt lat="46.08378" lon="6.72862">
        <ele>710.2</ele>
        <time>2023-08-16T17:43:29Z</time>
      </trkpt>
      <trkpt lat="46.08372" lon="6.72838">
        <ele>709.6</ele>
        <time>2023-08-16T17:43:37Z</time>
      </trkpt>
      <trkpt lat="46.08358" lon="6.72818">
        <ele>709.3</ele>
        <time>2023-08-16T17:43:44Z</time>
      </trkpt>
      <trkpt lat="46.08349" lon="6.72795">
        <ele>708.9</ele>
        <time>2023-08-16T17:43:51Z</time>
      </trkpt>
      <trkpt lat="46.08344" lon="6.7277">
        <ele>708.7</ele>
        <time>2023-08-16T17:43:58Z</time>
      </trkpt>
      <trkpt lat="46.08341" lon="6.72741">
        <ele>708.5</ele>
        <time>2023-08-16T17:44:06Z</time>
      </trkpt>
      <trkpt lat="46.08338" lon="6.72717">
        <ele>708.3</ele>
        <time>2023-08-16T17:44:13Z</time>
      </trkpt>
      <trkpt lat="46.08338" lon="6.727">
        <ele>708.1</ele>
        <time>2023-08-16T17:44:49Z</time>
      </trkpt>
      <trkpt lat="46.08337" lon="6.72673">
        <ele>707.9</ele>
        <time>2023-08-16T17:44:58Z</time>
      </trkpt>
      <trkpt lat="46.08333" lon="6.72646">
        <ele>707.6</ele>
        <time>2023-08-16T17:45:06Z</time>
      </trkpt>
      <trkpt lat="46.08339" lon="6.7262">
        <ele>707.2</ele>
        <time>2023-08-16T17:45:15Z</time>
      </trkpt>
      <trkpt lat="46.08348" lon="6.72597">
        <ele>706.9</ele>
        <time>2023-08-16T17:45:23Z</time>
      </trkpt>
      <trkpt lat="46.08357" lon="6.72571">
        <ele>706.7</ele>
        <time>2023-08-16T17:45:31Z</time>
      </trkpt>
      <trkpt lat="46.08369" lon="6.7255">
        <ele>706.5</ele>
        <time>2023-08-16T17:45:39Z</time>
      </trkpt>
      <trkpt lat="46.08363" lon="6.72524">
        <ele>705.8</ele>
        <time>2023-08-16T17:45:47Z</time>
      </trkpt>
      <trkpt lat="46.08348" lon="6.72508">
        <ele>705.2</ele>
        <time>2023-08-16T17:45:54Z</time>
      </trkpt>
      <trkpt lat="46.08331" lon="6.72497">
        <ele>704.6</ele>
        <time>2023-08-16T17:46:01Z</time>
      </trkpt>
      <trkpt lat="46.08314" lon="6.72484">
        <ele>704.1</ele>
        <time>2023-08-16T17:46:08Z</time>
      </trkpt>
      <trkpt lat="46.08296" lon="6.72471">
        <ele>703.7</ele>
        <time>2023-08-16T17:46:15Z</time>
      </trkpt>
      <trkpt lat="46.08281" lon="6.72457">
        <ele>703.5</ele>
        <time>2023-08-16T17:46:22Z</time>
      </trkpt>
      <trkpt lat="46.08264" lon="6.72444">
        <ele>703.1</ele>
        <time>2023-08-16T17:46:29Z</time>
      </trkpt>
      <trkpt lat="46.08248" lon="6.72431">
        <ele>702.8</ele>
        <time>2023-08-16T17:46:36Z</time>
      </trkpt>
      <trkpt lat="46.0823" lon="6.72418">
        <ele>702.4</ele>
        <time>2023-08-16T17:46:44Z</time>
      </trkpt>
      <trkpt lat="46.08226" lon="6.72417">
        <ele>702.3</ele>
        <time>2023-08-16T17:46:46Z</time>
      </trkpt>
      <trkpt lat="46.08219" lon="6.72421">
        <ele>702.1</ele>
        <time>2023-08-16T17:46:50Z</time>
      </trkpt>
      <trkpt lat="46.0821" lon="6.72397">
        <ele>702</ele>
        <time>2023-08-16T17:46:57Z</time>
      </trkpt>
      <trkpt lat="46.08197" lon="6.72379">
        <ele>701.7</ele>
        <time>2023-08-16T17:47:04Z</time>
      </trkpt>
      <trkpt lat="46.0818" lon="6.72363">
        <ele>701.4</ele>
        <time>2023-08-16T17:47:15Z</time>
      </trkpt>
      <trkpt lat="46.08164" lon="6.72347">
        <ele>701.2</ele>
        <time>2023-08-16T17:47:22Z</time>
      </trkpt>
      <trkpt lat="46.08147" lon="6.72334">
        <ele>701</ele>
        <time>2023-08-16T17:47:30Z</time>
      </trkpt>
      <trkpt lat="46.08131" lon="6.72321">
        <ele>700.8</ele>
        <time>2023-08-16T17:47:38Z</time>
      </trkpt>
      <trkpt lat="46.08113" lon="6.72306">
        <ele>700.5</ele>
        <time>2023-08-16T17:47:46Z</time>
      </trkpt>
      <trkpt lat="46.08097" lon="6.72291">
        <ele>700.4</ele>
        <time>2023-08-16T17:47:54Z</time>
      </trkpt>
      <trkpt lat="46.08079" lon="6.72277">
        <ele>700.3</ele>
        <time>2023-08-16T17:48:03Z</time>
      </trkpt>
      <trkpt lat="46.08061" lon="6.72266">
        <ele>700</ele>
        <time>2023-08-16T17:48:12Z</time>
      </trkpt>
      <trkpt lat="46.08045" lon="6.7225">
        <ele>699.9</ele>
        <time>2023-08-16T17:48:19Z</time>
      </trkpt>
      <trkpt lat="46.0803" lon="6.72233">
        <ele>699.8</ele>
        <time>2023-08-16T17:48:28Z</time>
      </trkpt>
      <trkpt lat="46.08016" lon="6.72216">
        <ele>699.6</ele>
        <time>2023-08-16T17:48:34Z</time>
      </trkpt>
      <trkpt lat="46.08" lon="6.72197">
        <ele>699.6</ele>
        <time>2023-08-16T17:48:43Z</time>
      </trkpt>
      <trkpt lat="46.07984" lon="6.72184">
        <ele>699.5</ele>
        <time>2023-08-16T17:48:51Z</time>
      </trkpt>
      <trkpt lat="46.07971" lon="6.72166">
        <ele>699.5</ele>
        <time>2023-08-16T17:48:58Z</time>
      </trkpt>
      <trkpt lat="46.07954" lon="6.72149">
        <ele>699.6</ele>
        <time>2023-08-16T17:49:05Z</time>
      </trkpt>
      <trkpt lat="46.07937" lon="6.72135">
        <ele>699.6</ele>
        <time>2023-08-16T17:49:13Z</time>
      </trkpt>
      <trkpt lat="46.07922" lon="6.72123">
        <ele>699.5</ele>
        <time>2023-08-16T17:49:20Z</time>
      </trkpt>
      <trkpt lat="46.07905" lon="6.7211">
        <ele>699.5</ele>
        <time>2023-08-16T17:49:27Z</time>
      </trkpt>
      <trkpt lat="46.07889" lon="6.72096">
        <ele>699.5</ele>
        <time>2023-08-16T17:49:35Z</time>
      </trkpt>
      <trkpt lat="46.07872" lon="6.7208">
        <ele>699.5</ele>
        <time>2023-08-16T17:49:42Z</time>
      </trkpt>
      <trkpt lat="46.07856" lon="6.72066">
        <ele>699.5</ele>
        <time>2023-08-16T17:49:50Z</time>
      </trkpt>
      <trkpt lat="46.0784" lon="6.72053">
        <ele>699.4</ele>
        <time>2023-08-16T17:49:58Z</time>
      </trkpt>
      <trkpt lat="46.07823" lon="6.72038">
        <ele>699.4</ele>
        <time>2023-08-16T17:50:07Z</time>
      </trkpt>
      <trkpt lat="46.07807" lon="6.72023">
        <ele>699.4</ele>
        <time>2023-08-16T17:50:15Z</time>
      </trkpt>
      <trkpt lat="46.0779" lon="6.72008">
        <ele>699.4</ele>
        <time>2023-08-16T17:50:22Z</time>
      </trkpt>
      <trkpt lat="46.07774" lon="6.71991">
        <ele>699.4</ele>
        <time>2023-08-16T17:50:29Z</time>
      </trkpt>
      <trkpt lat="46.07756" lon="6.71978">
        <ele>699.6</ele>
        <time>2023-08-16T17:50:36Z</time>
      </trkpt>
      <trkpt lat="46.0774" lon="6.71962">
        <ele>699.7</ele>
        <time>2023-08-16T17:50:44Z</time>
      </trkpt>
      <trkpt lat="46.07723" lon="6.71949">
        <ele>699.7</ele>
        <time>2023-08-16T17:50:52Z</time>
      </trkpt>
      <trkpt lat="46.0771" lon="6.71932">
        <ele>699.7</ele>
        <time>2023-08-16T17:50:59Z</time>
      </trkpt>
      <trkpt lat="46.07711" lon="6.71909">
        <ele>699.2</ele>
        <time>2023-08-16T17:51:07Z</time>
      </trkpt>
      <trkpt lat="46.07724" lon="6.71891">
        <ele>697.6</ele>
        <time>2023-08-16T17:51:14Z</time>
      </trkpt>
      <trkpt lat="46.07733" lon="6.71868">
        <ele>697</ele>
        <time>2023-08-16T17:51:20Z</time>
      </trkpt>
      <trkpt lat="46.07745" lon="6.71845">
        <ele>696.6</ele>
        <time>2023-08-16T17:51:28Z</time>
      </trkpt>
      <trkpt lat="46.07755" lon="6.7182">
        <ele>696.2</ele>
        <time>2023-08-16T17:51:36Z</time>
      </trkpt>
      <trkpt lat="46.07764" lon="6.71794">
        <ele>696</ele>
        <time>2023-08-16T17:51:44Z</time>
      </trkpt>
      <trkpt lat="46.07773" lon="6.71771">
        <ele>695.8</ele>
        <time>2023-08-16T17:51:51Z</time>
      </trkpt>
      <trkpt lat="46.07783" lon="6.71747">
        <ele>695.6</ele>
        <time>2023-08-16T17:51:58Z</time>
      </trkpt>
      <trkpt lat="46.07792" lon="6.71723">
        <ele>695.4</ele>
        <time>2023-08-16T17:52:06Z</time>
      </trkpt>
      <trkpt lat="46.07794" lon="6.71717">
        <ele>695.4</ele>
        <time>2023-08-16T17:52:09Z</time>
      </trkpt>
    </trkseg>
  </trk>
</gpx>